Check out our new PWSWeather beta!
PWSweather.com
Personal Weather Stations
Station Observations
KCOFALCO8
Falcon Hills, Falcon, CO 80831

Falcon HillsFalcon, CO 80831

Lat: 38.979792, Lon: -104.61195

Elevation: 7170

Station Type: AcuRite Pro 5-in-1

http://wx.frazierhome.net/

Latest ConditionsUpdated 11:30:05 AM MST Monday, Feb 24, 2020
Currently Today's Max Today's Min Today's Average
Temperature 27.5°F-2.5°C 43.2°F6.2°C 21.7°F-5.7°C 29.8°F-1.2°C
Dew Point 25.7°F-3.5°C 26.1°F-3.3°C 12.6°F-10.8°C 17.3°F-8.2°C
Winds 7.0 mph NNW11.3 kmh NNW 35.0 mph -56.3 kmh - - 5.3 mph 8.5 kmh
Wind Gusts -- -- - -
Humidity 93% 98% 32% 63%
Pressure 29.87 in1011.5 mb 29.92 in1013.2 mb 29.82 in1009.8 mb -
Hour Temp Dew Point Humidity Winds Wind Gusts Pressure Precip Precip Rate Daily Precip Total
11:30 AM 27.5°F-2.5°C 25.7°F-3.5°C 93% 7.0 mph NNW11.3 kmh NNW -- 29.87 in1011.5 mb 0.00 in0.0 mm 0.00 in0.0 mm 0.00 in0.0 mm
11:29 AM 27.3°F-2.6°C 25.5°F-3.6°C 93% 7.0 mph NW11.3 kmh NW -- 29.87 in1011.5 mb 0.00 in0.0 mm 0.00 in0.0 mm 0.00 in0.0 mm
11:28 AM 27.0°F-2.8°C 25.2°F-3.8°C 93% 7.0 mph NNW11.3 kmh NNW -- 29.87 in1011.5 mb 0.00 in0.0 mm 0.00 in0.0 mm 0.00 in0.0 mm
11:27 AM 27.0°F-2.8°C 25.2°F-3.8°C 93% 6.0 mph NNE9.7 kmh NNE -- 29.87 in1011.5 mb 0.00 in0.0 mm 0.00 in0.0 mm 0.00 in0.0 mm
11:26 AM 27.0°F-2.8°C 25.7°F-3.5°C 95% 9.0 mph WNW14.5 kmh WNW -- 29.87 in1011.5 mb 0.00 in0.0 mm 0.00 in0.0 mm 0.00 in0.0 mm
11:25 AM 27.0°F-2.8°C 25.7°F-3.5°C 95% 14.0 mph WNW22.5 kmh WNW -- 29.87 in1011.5 mb 0.00 in0.0 mm 0.00 in0.0 mm 0.00 in0.0 mm
11:24 AM 27.1°F-2.7°C 25.9°F-3.4°C 95% 10.0 mph 16.1 kmh -- 29.87 in1011.5 mb 0.00 in0.0 mm 0.00 in0.0 mm 0.00 in0.0 mm
11:23 AM 27.1°F-2.7°C 25.9°F-3.4°C 95% 9.0 mph NNW14.5 kmh NNW -- 29.87 in1011.5 mb 0.00 in0.0 mm 0.00 in0.0 mm 0.00 in0.0 mm
11:22 AM 27.3°F-2.6°C 26.1°F-3.3°C 95% 11.0 mph NNW17.7 kmh NNW -- 29.87 in1011.5 mb 0.00 in0.0 mm 0.00 in0.0 mm 0.00 in0.0 mm
11:21 AM 27.1°F-2.7°C 26.1°F-3.3°C 96% 7.0 mph NW11.3 kmh NW -- 29.87 in1011.5 mb 0.00 in0.0 mm 0.00 in0.0 mm 0.00 in0.0 mm
11:20 AM 27.1°F-2.7°C 26.1°F-3.3°C 96% 9.0 mph NNW14.5 kmh NNW -- 29.87 in1011.5 mb 0.00 in0.0 mm 0.00 in0.0 mm 0.00 in0.0 mm
11:19 AM 27.1°F-2.7°C 26.1°F-3.3°C 96% 9.0 mph 14.5 kmh -- 29.87 in1011.5 mb 0.00 in0.0 mm 0.00 in0.0 mm 0.00 in0.0 mm
11:18 AM 27.1°F-2.7°C 26.1°F-3.3°C 96% 7.0 mph NW11.3 kmh NW -- 29.87 in1011.5 mb 0.00 in0.0 mm 0.00 in0.0 mm 0.00 in0.0 mm
11:17 AM 27.0°F-2.8°C 26.0°F-3.3°C 96% 7.0 mph WNW11.3 kmh WNW -- 29.87 in1011.5 mb 0.00 in0.0 mm 0.00 in0.0 mm 0.00 in0.0 mm
11:16 AM 26.6°F-3.0°C 25.6°F-3.6°C 96% 6.0 mph NNW9.7 kmh NNW -- 29.87 in1011.5 mb 0.00 in0.0 mm 0.00 in0.0 mm 0.00 in0.0 mm
11:15 AM 26.6°F-3.0°C 25.6°F-3.6°C 96% 9.0 mph NNW14.5 kmh NNW -- 29.87 in1011.5 mb 0.00 in0.0 mm 0.00 in0.0 mm 0.00 in0.0 mm
11:14 AM 26.3°F-3.2°C 25.7°F-3.5°C 98% 12.0 mph NW19.3 kmh NW -- 29.87 in1011.5 mb 0.00 in0.0 mm 0.00 in0.0 mm 0.00 in0.0 mm
11:13 AM 26.3°F-3.2°C 25.7°F-3.5°C 98% 9.0 mph NNW14.5 kmh NNW -- 29.86 in1011.2 mb 0.00 in0.0 mm 0.00 in0.0 mm 0.00 in0.0 mm
11:12 AM 26.3°F-3.2°C 25.7°F-3.5°C 98% 7.0 mph 11.3 kmh -- 29.86 in1011.2 mb 0.00 in0.0 mm 0.00 in0.0 mm 0.00 in0.0 mm
11:11 AM 26.3°F-3.2°C 25.7°F-3.5°C 98% 10.0 mph NW16.1 kmh NW -- 29.86 in1011.2 mb 0.00 in0.0 mm 0.00 in0.0 mm 0.00 in0.0 mm
11:10 AM 26.3°F-3.2°C 25.7°F-3.5°C 98% 11.0 mph NW17.7 kmh NW -- 29.87 in1011.5 mb 0.00 in0.0 mm 0.00 in0.0 mm 0.00 in0.0 mm
11:09 AM 26.2°F-3.2°C 25.7°F-3.5°C 98% 8.0 mph NNW12.9 kmh NNW -- 29.87 in1011.5 mb 0.00 in0.0 mm 0.00 in0.0 mm 0.00 in0.0 mm
11:08 AM 26.2°F-3.2°C 25.7°F-3.5°C 98% 11.0 mph WNW17.7 kmh WNW -- 29.87 in1011.5 mb 0.00 in0.0 mm 0.00 in0.0 mm 0.00 in0.0 mm
11:07 AM 26.2°F-3.2°C 25.7°F-3.5°C 98% 11.0 mph NNW17.7 kmh NNW -- 29.87 in1011.5 mb 0.00 in0.0 mm 0.00 in0.0 mm 0.00 in0.0 mm
11:06 AM 26.1°F-3.3°C 25.6°F-3.6°C 98% 9.0 mph NNW14.5 kmh NNW -- 29.87 in1011.5 mb 0.00 in0.0 mm 0.00 in0.0 mm 0.00 in0.0 mm
11:05 AM 26.1°F-3.3°C 25.6°F-3.6°C 98% 11.0 mph WNW17.7 kmh WNW -- 29.87 in1011.5 mb 0.00 in0.0 mm 0.00 in0.0 mm 0.00 in0.0 mm
11:03 AM 25.9°F-3.4°C 25.4°F-3.7°C 98% 11.0 mph NNW17.7 kmh NNW -- 29.87 in1011.5 mb 0.00 in0.0 mm 0.00 in0.0 mm 0.00 in0.0 mm
11:02 AM 25.4°F-3.7°C 24.8°F-4.0°C 98% 10.0 mph WNW16.1 kmh WNW -- 29.87 in1011.5 mb 0.00 in0.0 mm 0.00 in0.0 mm 0.00 in0.0 mm
11:01 AM 25.4°F-3.7°C 24.8°F-4.0°C 98% 12.0 mph WNW19.3 kmh WNW -- 29.87 in1011.5 mb 0.00 in0.0 mm 0.00 in0.0 mm 0.00 in0.0 mm
11:00 AM 25.4°F-3.7°C 24.8°F-4.0°C 98% 11.0 mph WNW17.7 kmh WNW -- 29.88 in1011.9 mb 0.00 in0.0 mm 0.00 in0.0 mm 0.00 in0.0 mm
10:59 AM 25.4°F-3.7°C 24.8°F-4.0°C 98% 14.0 mph W22.5 kmh W -- 29.88 in1011.9 mb 0.00 in0.0 mm 0.00 in0.0 mm 0.00 in0.0 mm
10:58 AM 25.4°F-3.7°C 24.8°F-4.0°C 98% 20.0 mph NW32.2 kmh NW -- 29.87 in1011.5 mb 0.00 in0.0 mm 0.00 in0.0 mm 0.00 in0.0 mm
10:57 AM 25.4°F-3.7°C 24.8°F-4.0°C 98% 15.0 mph NNW24.1 kmh NNW -- 29.87 in1011.5 mb 0.00 in0.0 mm 0.00 in0.0 mm 0.00 in0.0 mm
10:56 AM 25.2°F-3.8°C 24.7°F-4.1°C 98% 13.0 mph NNW20.9 kmh NNW -- 29.88 in1011.9 mb 0.00 in0.0 mm 0.00 in0.0 mm 0.00 in0.0 mm
10:55 AM 25.2°F-3.8°C 24.7°F-4.1°C 98% 17.0 mph 27.4 kmh -- 29.88 in1011.9 mb 0.00 in0.0 mm 0.00 in0.0 mm 0.00 in0.0 mm
10:54 AM 25.2°F-3.8°C 24.7°F-4.1°C 98% 11.0 mph NNW17.7 kmh NNW -- 29.88 in1011.9 mb 0.00 in0.0 mm 0.00 in0.0 mm 0.00 in0.0 mm
10:53 AM 25.2°F-3.8°C 24.7°F-4.1°C 98% 16.0 mph WNW25.7 kmh WNW -- 29.88 in1011.9 mb 0.00 in0.0 mm 0.00 in0.0 mm 0.00 in0.0 mm
10:52 AM 25.2°F-3.8°C 24.7°F-4.1°C 98% 19.0 mph WNW30.6 kmh WNW -- 29.88 in1011.9 mb 0.00 in0.0 mm 0.00 in0.0 mm 0.00 in0.0 mm
10:51 AM 25.2°F-3.8°C 24.7°F-4.1°C 98% 12.0 mph NNW19.3 kmh NNW -- 29.87 in1011.5 mb 0.00 in0.0 mm 0.00 in0.0 mm 0.00 in0.0 mm
10:50 AM 25.2°F-3.8°C 24.7°F-4.1°C 98% 18.0 mph NW29.0 kmh NW -- 29.87 in1011.5 mb 0.00 in0.0 mm 0.00 in0.0 mm 0.00 in0.0 mm
10:49 AM 25.2°F-3.8°C 24.7°F-4.1°C 98% 15.0 mph NW24.1 kmh NW -- 29.87 in1011.5 mb 0.00 in0.0 mm 0.00 in0.0 mm 0.00 in0.0 mm
10:48 AM 25.1°F-3.8°C 24.7°F-4.1°C 98% 12.0 mph NNW19.3 kmh NNW -- 29.87 in1011.5 mb 0.00 in0.0 mm 0.00 in0.0 mm 0.00 in0.0 mm
10:47 AM 25.0°F-3.9°C 24.0°F-4.4°C 96% 17.0 mph NW27.4 kmh NW -- 29.87 in1011.5 mb 0.00 in0.0 mm 0.00 in0.0 mm 0.00 in0.0 mm
10:46 AM 25.0°F-3.9°C 24.0°F-4.4°C 96% 16.0 mph NW25.7 kmh NW -- 29.87 in1011.5 mb 0.00 in0.0 mm 0.00 in0.0 mm 0.00 in0.0 mm
10:45 AM 25.0°F-3.9°C 24.0°F-4.4°C 96% 17.0 mph NNW27.4 kmh NNW -- 29.88 in1011.9 mb 0.00 in0.0 mm 0.00 in0.0 mm 0.00 in0.0 mm
10:44 AM 25.0°F-3.9°C 24.0°F-4.4°C 96% 16.0 mph NNW25.7 kmh NNW -- 29.88 in1011.9 mb 0.00 in0.0 mm 0.00 in0.0 mm 0.00 in0.0 mm
10:43 AM 25.2°F-3.8°C 23.4°F-4.8°C 93% 22.0 mph WNW35.4 kmh WNW -- 29.88 in1011.9 mb 0.00 in0.0 mm 0.00 in0.0 mm 0.00 in0.0 mm
10:42 AM 25.4°F-3.7°C 23.0°F-5.0°C 91% 24.0 mph 38.6 kmh -- 29.87 in1011.5 mb 0.00 in0.0 mm 0.00 in0.0 mm 0.00 in0.0 mm
10:41 AM 25.7°F-3.5°C 23.1°F-4.9°C 90% 14.0 mph WNW22.5 kmh WNW -- 29.87 in1011.5 mb 0.00 in0.0 mm 0.00 in0.0 mm 0.00 in0.0 mm
10:40 AM 25.9°F-3.4°C 22.8°F-5.1°C 88% 15.0 mph NW24.1 kmh NW -- 29.87 in1011.5 mb 0.00 in0.0 mm 0.00 in0.0 mm 0.00 in0.0 mm
10:39 AM 26.1°F-3.3°C 22.4°F-5.3°C 86% 9.0 mph WNW14.5 kmh WNW -- 29.87 in1011.5 mb 0.00 in0.0 mm 0.00 in0.0 mm 0.00 in0.0 mm
10:38 AM 26.2°F-3.2°C 21.1°F-6.1°C 81% 12.0 mph NNW19.3 kmh NNW -- 29.87 in1011.5 mb 0.00 in0.0 mm 0.00 in0.0 mm 0.00 in0.0 mm
10:37 AM 26.6°F-3.0°C 21.2°F-6.0°C 80% 24.0 mph NNW38.6 kmh NNW -- 29.86 in1011.2 mb 0.00 in0.0 mm 0.00 in0.0 mm 0.00 in0.0 mm
10:36 AM 27.1°F-2.7°C 20.2°F-6.6°C 75% 27.0 mph WNW43.5 kmh WNW -- 29.86 in1011.2 mb 0.00 in0.0 mm 0.00 in0.0 mm 0.00 in0.0 mm
10:35 AM 27.1°F-2.7°C 20.2°F-6.6°C 75% 14.0 mph WNW22.5 kmh WNW -- 29.86 in1011.2 mb 0.00 in0.0 mm 0.00 in0.0 mm 0.00 in0.0 mm
10:34 AM 27.1°F-2.7°C 19.5°F-6.9°C 73% 21.0 mph NW33.8 kmh NW -- 29.86 in1011.2 mb 0.00 in0.0 mm 0.00 in0.0 mm 0.00 in0.0 mm
10:33 AM 27.3°F-2.6°C 19.7°F-6.8°C 73% 21.0 mph NE33.8 kmh NE -- 29.86 in1011.2 mb 0.00 in0.0 mm 0.00 in0.0 mm 0.00 in0.0 mm
10:32 AM 27.3°F-2.6°C 19.7°F-6.8°C 73% 20.0 mph WNW32.2 kmh WNW -- 29.85 in1010.8 mb 0.00 in0.0 mm 0.00 in0.0 mm 0.00 in0.0 mm
10:31 AM 27.3°F-2.6°C 19.7°F-6.8°C 73% 21.0 mph NNW33.8 kmh NNW -- 29.86 in1011.2 mb 0.00 in0.0 mm 0.00 in0.0 mm 0.00 in0.0 mm
10:30 AM 27.1°F-2.7°C 18.9°F-7.3°C 71% 16.0 mph WNW25.7 kmh WNW -- 29.86 in1011.2 mb 0.00 in0.0 mm 0.00 in0.0 mm 0.00 in0.0 mm
10:29 AM 27.1°F-2.7°C 18.9°F-7.3°C 71% 23.0 mph 37.0 kmh -- 29.86 in1011.2 mb 0.00 in0.0 mm 0.00 in0.0 mm 0.00 in0.0 mm
10:28 AM 27.3°F-2.6°C 18.7°F-7.4°C 70% 20.0 mph NNW32.2 kmh NNW -- 29.85 in1010.8 mb 0.00 in0.0 mm 0.00 in0.0 mm 0.00 in0.0 mm
10:27 AM 27.6°F-2.4°C 19.1°F-7.2°C 70% 25.0 mph 40.2 kmh -- 29.86 in1011.2 mb 0.00 in0.0 mm 0.00 in0.0 mm 0.00 in0.0 mm
10:26 AM 27.6°F-2.4°C 19.1°F-7.2°C 70% 22.0 mph 35.4 kmh -- 29.86 in1011.2 mb 0.00 in0.0 mm 0.00 in0.0 mm 0.00 in0.0 mm
10:25 AM 27.6°F-2.4°C 18.7°F-7.4°C 69% 23.0 mph NNW37.0 kmh NNW -- 29.86 in1011.2 mb 0.00 in0.0 mm 0.00 in0.0 mm 0.00 in0.0 mm
10:24 AM 27.8°F-2.3°C 18.9°F-7.3°C 69% 26.0 mph NE41.8 kmh NE -- 29.86 in1011.2 mb 0.00 in0.0 mm 0.00 in0.0 mm 0.00 in0.0 mm
10:23 AM 27.9°F-2.3°C 18.9°F-7.3°C 69% 23.0 mph 37.0 kmh -- 29.85 in1010.8 mb 0.00 in0.0 mm 0.00 in0.0 mm 0.00 in0.0 mm
10:22 AM 27.9°F-2.3°C 18.5°F-7.5°C 68% 19.0 mph 30.6 kmh -- 29.85 in1010.8 mb 0.00 in0.0 mm 0.00 in0.0 mm 0.00 in0.0 mm
10:21 AM 28.6°F-1.9°C 18.2°F-7.7°C 65% 35.0 mph NNW56.3 kmh NNW -- 29.85 in1010.8 mb 0.00 in0.0 mm 0.00 in0.0 mm 0.00 in0.0 mm
10:20 AM 28.8°F-1.8°C 18.3°F-7.6°C 65% 23.0 mph NNW37.0 kmh NNW -- 29.85 in1010.8 mb 0.00 in0.0 mm 0.00 in0.0 mm 0.00 in0.0 mm
10:19 AM 29.2°F-1.6°C 18.7°F-7.4°C 65% 20.0 mph 32.2 kmh -- 29.85 in1010.8 mb 0.00 in0.0 mm 0.00 in0.0 mm 0.00 in0.0 mm
10:18 AM 29.5°F-1.4°C 19.0°F-7.2°C 65% 23.0 mph 37.0 kmh -- 29.85 in1010.8 mb 0.00 in0.0 mm 0.00 in0.0 mm 0.00 in0.0 mm
10:17 AM 29.5°F-1.4°C 19.0°F-7.2°C 65% 21.0 mph NW33.8 kmh NW -- 29.85 in1010.8 mb 0.00 in0.0 mm 0.00 in0.0 mm 0.00 in0.0 mm
10:16 AM 29.6°F-1.3°C 19.2°F-7.1°C 65% 19.0 mph NNW30.6 kmh NNW -- 29.86 in1011.2 mb 0.00 in0.0 mm 0.00 in0.0 mm 0.00 in0.0 mm
10:15 AM 29.6°F-1.3°C 19.2°F-7.1°C 65% 12.0 mph NW19.3 kmh NW -- 29.86 in1011.2 mb 0.00 in0.0 mm 0.00 in0.0 mm 0.00 in0.0 mm
10:14 AM 29.8°F-1.2°C 19.4°F-7.0°C 65% 23.0 mph NNW37.0 kmh NNW -- 29.85 in1010.8 mb 0.00 in0.0 mm 0.00 in0.0 mm 0.00 in0.0 mm
10:13 AM 30.0°F-1.1°C 18.8°F-7.3°C 63% 18.0 mph NNE29.0 kmh NNE -- 29.84 in1010.5 mb 0.00 in0.0 mm 0.00 in0.0 mm 0.00 in0.0 mm
10:12 AM 30.1°F-1.1°C 18.8°F-7.3°C 63% 18.0 mph NNW29.0 kmh NNW -- 29.84 in1010.5 mb 0.00 in0.0 mm 0.00 in0.0 mm 0.00 in0.0 mm
10:11 AM 30.7°F-0.7°C 19.5°F-6.9°C 63% 26.0 mph 41.8 kmh -- 29.85 in1010.8 mb 0.00 in0.0 mm 0.00 in0.0 mm 0.00 in0.0 mm
10:10 AM 31.2°F-0.4°C 19.2°F-7.1°C 61% 23.0 mph NNE37.0 kmh NNE -- 29.84 in1010.5 mb 0.00 in0.0 mm 0.00 in0.0 mm 0.00 in0.0 mm
10:09 AM 31.6°F-0.2°C 19.2°F-7.1°C 60% 23.0 mph NNW37.0 kmh NNW -- 29.85 in1010.8 mb 0.00 in0.0 mm 0.00 in0.0 mm 0.00 in0.0 mm
10:08 AM 32.4°F0.2°C 19.1°F-7.2°C 58% 15.0 mph WNW24.1 kmh WNW -- 29.85 in1010.8 mb 0.00 in0.0 mm 0.00 in0.0 mm 0.00 in0.0 mm
10:07 AM 32.9°F0.5°C 18.3°F-7.6°C 55% 13.0 mph WNW20.9 kmh WNW -- 29.85 in1010.8 mb 0.00 in0.0 mm 0.00 in0.0 mm 0.00 in0.0 mm
10:06 AM 34.5°F1.4°C 18.1°F-7.7°C 51% 17.0 mph NNW27.4 kmh NNW -- 29.85 in1010.8 mb 0.00 in0.0 mm 0.00 in0.0 mm 0.00 in0.0 mm
10:05 AM 37.0°F2.8°C 17.5°F-8.1°C 45% 20.0 mph NW32.2 kmh NW -- 29.85 in1010.8 mb 0.00 in0.0 mm 0.00 in0.0 mm 0.00 in0.0 mm
10:04 AM 38.2°F3.4°C 15.7°F-9.1°C 40% 15.0 mph W24.1 kmh W -- 29.85 in1010.8 mb 0.00 in0.0 mm 0.00 in0.0 mm 0.00 in0.0 mm
10:03 AM 39.2°F4.0°C 14.9°F-9.5°C 37% 7.0 mph W11.3 kmh W -- 29.84 in1010.5 mb 0.00 in0.0 mm 0.00 in0.0 mm 0.00 in0.0 mm
10:02 AM 39.5°F4.2°C 13.9°F-10.1°C 35% 7.0 mph NW11.3 kmh NW -- 29.84 in1010.5 mb 0.00 in0.0 mm 0.00 in0.0 mm 0.00 in0.0 mm
10:01 AM 39.7°F4.3°C 14.1°F-9.9°C 35% 9.0 mph W14.5 kmh W -- 29.84 in1010.5 mb 0.00 in0.0 mm 0.00 in0.0 mm 0.00 in0.0 mm
10:00 AM 40.5°F4.7°C 14.7°F-9.6°C 35% 10.0 mph W16.1 kmh W -- 29.83 in1010.2 mb 0.00 in0.0 mm 0.00 in0.0 mm 0.00 in0.0 mm
09:59 AM 40.5°F4.7°C 14.7°F-9.6°C 35% 6.0 mph W9.7 kmh W -- 29.84 in1010.5 mb 0.00 in0.0 mm 0.00 in0.0 mm 0.00 in0.0 mm
09:58 AM 40.5°F4.7°C 14.7°F-9.6°C 35% 9.0 mph SW14.5 kmh SW -- 29.84 in1010.5 mb 0.00 in0.0 mm 0.00 in0.0 mm 0.00 in0.0 mm
09:57 AM 40.7°F4.8°C 14.9°F-9.5°C 35% 11.0 mph W17.7 kmh W -- 29.84 in1010.5 mb 0.00 in0.0 mm 0.00 in0.0 mm 0.00 in0.0 mm
09:56 AM 40.9°F4.9°C 15.1°F-9.4°C 35% 8.0 mph WSW12.9 kmh WSW -- 29.84 in1010.5 mb 0.00 in0.0 mm 0.00 in0.0 mm 0.00 in0.0 mm
09:55 AM 40.9°F4.9°C 15.1°F-9.4°C 35% 9.0 mph W14.5 kmh W -- 29.84 in1010.5 mb 0.00 in0.0 mm 0.00 in0.0 mm 0.00 in0.0 mm
09:54 AM 41.1°F5.1°C 15.4°F-9.2°C 35% 4.0 mph WSW6.4 kmh WSW -- 29.84 in1010.5 mb 0.00 in0.0 mm 0.00 in0.0 mm 0.00 in0.0 mm
09:53 AM 41.1°F5.1°C 15.4°F-9.2°C 35% 6.0 mph W9.7 kmh W -- 29.84 in1010.5 mb 0.00 in0.0 mm 0.00 in0.0 mm 0.00 in0.0 mm
09:52 AM 40.9°F4.9°C 15.1°F-9.4°C 35% 2.0 mph 3.2 kmh -- 29.84 in1010.5 mb 0.00 in0.0 mm 0.00 in0.0 mm 0.00 in0.0 mm
09:51 AM 41.7°F5.4°C 15.9°F-8.9°C 35% 2.0 mph W3.2 kmh W -- 29.84 in1010.5 mb 0.00 in0.0 mm 0.00 in0.0 mm 0.00 in0.0 mm
09:50 AM 41.7°F5.4°C 15.9°F-8.9°C 35% 6.0 mph WNW9.7 kmh WNW -- 29.83 in1010.2 mb 0.00 in0.0 mm 0.00 in0.0 mm 0.00 in0.0 mm
09:49 AM 42.1°F5.6°C 15.5°F-9.2°C 34% 5.0 mph W8.0 kmh W -- 29.83 in1010.2 mb 0.00 in0.0 mm 0.00 in0.0 mm 0.00 in0.0 mm
09:48 AM 42.1°F5.6°C 15.5°F-9.2°C 34% 6.0 mph NNE9.7 kmh NNE -- 29.83 in1010.2 mb 0.00 in0.0 mm 0.00 in0.0 mm 0.00 in0.0 mm
09:47 AM 42.4°F5.8°C 15.8°F-9.0°C 34% 9.0 mph W14.5 kmh W -- 29.83 in1010.2 mb 0.00 in0.0 mm 0.00 in0.0 mm 0.00 in0.0 mm
09:46 AM 42.5°F5.8°C 15.8°F-9.0°C 34% 7.0 mph WSW11.3 kmh WSW -- 29.84 in1010.5 mb 0.00 in0.0 mm 0.00 in0.0 mm 0.00 in0.0 mm
09:45 AM 43.2°F6.2°C 15.1°F-9.4°C 32% 3.0 mph WNW4.8 kmh WNW -- 29.83 in1010.2 mb 0.00 in0.0 mm 0.00 in0.0 mm 0.00 in0.0 mm
09:44 AM 43.0°F6.1°C 14.9°F-9.5°C 32% 4.0 mph W6.4 kmh W -- 29.83 in1010.2 mb 0.00 in0.0 mm 0.00 in0.0 mm 0.00 in0.0 mm
09:43 AM 42.7°F5.9°C 14.6°F-9.7°C 32% 5.0 mph W8.0 kmh W -- 29.83 in1010.2 mb 0.00 in0.0 mm 0.00 in0.0 mm 0.00 in0.0 mm
09:42 AM 42.7°F5.9°C 16.0°F-8.9°C 34% 5.0 mph WNW8.0 kmh WNW -- 29.82 in1009.8 mb 0.00 in0.0 mm 0.00 in0.0 mm 0.00 in0.0 mm
09:41 AM 42.4°F5.8°C 15.8°F-9.0°C 34% 5.0 mph W8.0 kmh W -- 29.82 in1009.8 mb 0.00 in0.0 mm 0.00 in0.0 mm 0.00 in0.0 mm
09:40 AM 42.5°F5.8°C 14.4°F-9.8°C 32% 3.0 mph W4.8 kmh W -- 29.83 in1010.2 mb 0.00 in0.0 mm 0.00 in0.0 mm 0.00 in0.0 mm
09:39 AM 42.7°F5.9°C 16.0°F-8.9°C 34% 8.0 mph W12.9 kmh W -- 29.83 in1010.2 mb 0.00 in0.0 mm 0.00 in0.0 mm 0.00 in0.0 mm
09:38 AM 42.3°F5.7°C 15.7°F-9.1°C 34% 6.0 mph W9.7 kmh W -- 29.83 in1010.2 mb 0.00 in0.0 mm 0.00 in0.0 mm 0.00 in0.0 mm
09:37 AM 41.9°F5.5°C 15.3°F-9.3°C 34% 6.0 mph W9.7 kmh W -- 29.83 in1010.2 mb 0.00 in0.0 mm 0.00 in0.0 mm 0.00 in0.0 mm
09:36 AM 41.9°F5.5°C 15.3°F-9.3°C 34% 4.0 mph W6.4 kmh W -- 29.83 in1010.2 mb 0.00 in0.0 mm 0.00 in0.0 mm 0.00 in0.0 mm
09:35 AM 42.1°F5.6°C 15.5°F-9.2°C 34% 3.0 mph WNW4.8 kmh WNW -- 29.83 in1010.2 mb 0.00 in0.0 mm 0.00 in0.0 mm 0.00 in0.0 mm
09:34 AM 42.4°F5.8°C 15.8°F-9.0°C 34% 4.0 mph W6.4 kmh W -- 29.83 in1010.2 mb 0.00 in0.0 mm 0.00 in0.0 mm 0.00 in0.0 mm
09:33 AM 42.5°F5.8°C 15.8°F-9.0°C 34% 7.0 mph W11.3 kmh W -- 29.83 in1010.2 mb 0.00 in0.0 mm 0.00 in0.0 mm 0.00 in0.0 mm
09:32 AM 43.0°F6.1°C 16.3°F-8.7°C 34% 8.0 mph W12.9 kmh W -- 29.83 in1010.2 mb 0.00 in0.0 mm 0.00 in0.0 mm 0.00 in0.0 mm
09:31 AM 42.7°F5.9°C 16.0°F-8.9°C 34% 8.0 mph W12.9 kmh W -- 29.83 in1010.2 mb 0.00 in0.0 mm 0.00 in0.0 mm 0.00 in0.0 mm
09:30 AM 42.4°F5.8°C 15.8°F-9.0°C 34% 4.0 mph SW6.4 kmh SW -- 29.83 in1010.2 mb 0.00 in0.0 mm 0.00 in0.0 mm 0.00 in0.0 mm
09:29 AM 42.4°F5.8°C 14.4°F-9.8°C 32% 5.0 mph WNW8.0 kmh WNW -- 29.83 in1010.2 mb 0.00 in0.0 mm 0.00 in0.0 mm 0.00 in0.0 mm
09:28 AM 42.7°F5.9°C 14.6°F-9.7°C 32% 8.0 mph W12.9 kmh W -- 29.83 in1010.2 mb 0.00 in0.0 mm 0.00 in0.0 mm 0.00 in0.0 mm
09:27 AM 43.0°F6.1°C 14.9°F-9.5°C 32% 10.0 mph W16.1 kmh W -- 29.83 in1010.2 mb 0.00 in0.0 mm 0.00 in0.0 mm 0.00 in0.0 mm
09:26 AM 43.0°F6.1°C 14.9°F-9.5°C 32% 12.0 mph WNW19.3 kmh WNW -- 29.83 in1010.2 mb 0.00 in0.0 mm 0.00 in0.0 mm 0.00 in0.0 mm
09:25 AM 43.2°F6.2°C 15.1°F-9.4°C 32% 7.0 mph W11.3 kmh W -- 29.83 in1010.2 mb 0.00 in0.0 mm 0.00 in0.0 mm 0.00 in0.0 mm
09:24 AM 43.2°F6.2°C 15.1°F-9.4°C 32% 7.0 mph WNW11.3 kmh WNW -- 29.83 in1010.2 mb 0.00 in0.0 mm 0.00 in0.0 mm 0.00 in0.0 mm
09:23 AM 43.2°F6.2°C 15.1°F-9.4°C 32% 8.0 mph WSW12.9 kmh WSW -- 29.83 in1010.2 mb 0.00 in0.0 mm 0.00 in0.0 mm 0.00 in0.0 mm
09:22 AM 42.7°F5.9°C 14.6°F-9.7°C 32% 9.0 mph W14.5 kmh W -- 29.83 in1010.2 mb 0.00 in0.0 mm 0.00 in0.0 mm 0.00 in0.0 mm
09:21 AM 42.7°F5.9°C 14.6°F-9.7°C 32% 4.0 mph WNW6.4 kmh WNW -- 29.83 in1010.2 mb 0.00 in0.0 mm 0.00 in0.0 mm 0.00 in0.0 mm
09:20 AM 42.4°F5.8°C 15.8°F-9.0°C 34% 5.0 mph WNW8.0 kmh WNW -- 29.83 in1010.2 mb 0.00 in0.0 mm 0.00 in0.0 mm 0.00 in0.0 mm
09:19 AM 41.5°F5.3°C 15.7°F-9.1°C 35% 6.0 mph WSW9.7 kmh WSW -- 29.83 in1010.2 mb 0.00 in0.0 mm 0.00 in0.0 mm 0.00 in0.0 mm
09:18 AM 40.9°F4.9°C 15.1°F-9.4°C 35% 2.0 mph SSW3.2 kmh SSW -- 29.83 in1010.2 mb 0.00 in0.0 mm 0.00 in0.0 mm 0.00 in0.0 mm
09:17 AM 40.9°F4.9°C 15.1°F-9.4°C 35% 1.0 mph SW1.6 kmh SW -- 29.83 in1010.2 mb 0.00 in0.0 mm 0.00 in0.0 mm 0.00 in0.0 mm
09:16 AM 41.4°F5.2°C 15.5°F-9.2°C 35% 3.0 mph SSW4.8 kmh SSW -- 29.83 in1010.2 mb 0.00 in0.0 mm 0.00 in0.0 mm 0.00 in0.0 mm
09:15 AM 41.4°F5.2°C 15.5°F-9.2°C 35% 2.0 mph SW3.2 kmh SW -- 29.83 in1010.2 mb 0.00 in0.0 mm 0.00 in0.0 mm 0.00 in0.0 mm
09:14 AM 41.7°F5.4°C 15.9°F-8.9°C 35% 2.0 mph 3.2 kmh -- 29.83 in1010.2 mb 0.00 in0.0 mm 0.00 in0.0 mm 0.00 in0.0 mm
09:13 AM 42.3°F5.7°C 15.7°F-9.1°C 34% 4.0 mph NW6.4 kmh NW -- 29.83 in1010.2 mb 0.00 in0.0 mm 0.00 in0.0 mm 0.00 in0.0 mm
09:12 AM 42.3°F5.7°C 16.3°F-8.7°C 35% 6.0 mph W9.7 kmh W -- 29.84 in1010.5 mb 0.00 in0.0 mm 0.00 in0.0 mm 0.00 in0.0 mm
09:11 AM 41.9°F5.5°C 16.0°F-8.9°C 35% 5.0 mph WNW8.0 kmh WNW -- 29.83 in1010.2 mb 0.00 in0.0 mm 0.00 in0.0 mm 0.00 in0.0 mm
09:10 AM 41.4°F5.2°C 15.5°F-9.2°C 35% 4.0 mph NW6.4 kmh NW -- 29.83 in1010.2 mb 0.00 in0.0 mm 0.00 in0.0 mm 0.00 in0.0 mm
09:09 AM 41.4°F5.2°C 15.5°F-9.2°C 35% 2.0 mph W3.2 kmh W -- 29.83 in1010.2 mb 0.00 in0.0 mm 0.00 in0.0 mm 0.00 in0.0 mm
09:08 AM 41.4°F5.2°C 15.5°F-9.2°C 35% 3.0 mph W4.8 kmh W -- 29.84 in1010.5 mb 0.00 in0.0 mm 0.00 in0.0 mm 0.00 in0.0 mm
09:07 AM 41.5°F5.3°C 15.7°F-9.1°C 35% 4.0 mph W6.4 kmh W -- 29.84 in1010.5 mb 0.00 in0.0 mm 0.00 in0.0 mm 0.00 in0.0 mm
09:06 AM 41.4°F5.2°C 15.5°F-9.2°C 35% 5.0 mph WNW8.0 kmh WNW -- 29.84 in1010.5 mb 0.00 in0.0 mm 0.00 in0.0 mm 0.00 in0.0 mm
09:05 AM 41.4°F5.2°C 15.5°F-9.2°C 35% 4.0 mph WNW6.4 kmh WNW -- 29.84 in1010.5 mb 0.00 in0.0 mm 0.00 in0.0 mm 0.00 in0.0 mm
09:04 AM 41.1°F5.1°C 15.4°F-9.2°C 35% 6.0 mph W9.7 kmh W -- 29.84 in1010.5 mb 0.00 in0.0 mm 0.00 in0.0 mm 0.00 in0.0 mm
09:03 AM 40.7°F4.8°C 16.2°F-8.8°C 37% 6.0 mph NNW9.7 kmh NNW -- 29.84 in1010.5 mb 0.00 in0.0 mm 0.00 in0.0 mm 0.00 in0.0 mm
09:02 AM 40.7°F4.8°C 16.2°F-8.8°C 37% 6.0 mph NNE9.7 kmh NNE -- 29.84 in1010.5 mb 0.00 in0.0 mm 0.00 in0.0 mm 0.00 in0.0 mm
09:01 AM 40.5°F4.7°C 16.0°F-8.9°C 37% 5.0 mph WNW8.0 kmh WNW -- 29.84 in1010.5 mb 0.00 in0.0 mm 0.00 in0.0 mm 0.00 in0.0 mm
09:00 AM 40.5°F4.7°C 16.0°F-8.9°C 37% 4.0 mph WNW6.4 kmh WNW -- 29.84 in1010.5 mb 0.00 in0.0 mm 0.00 in0.0 mm 0.00 in0.0 mm
08:59 AM 40.5°F4.7°C 16.0°F-8.9°C 37% 4.0 mph NW6.4 kmh NW -- 29.84 in1010.5 mb 0.00 in0.0 mm 0.00 in0.0 mm 0.00 in0.0 mm
08:58 AM 40.2°F4.6°C 15.8°F-9.0°C 37% 8.0 mph W12.9 kmh W -- 29.84 in1010.5 mb 0.00 in0.0 mm 0.00 in0.0 mm 0.00 in0.0 mm
08:57 AM 40.0°F4.4°C 15.5°F-9.2°C 37% 4.0 mph W6.4 kmh W -- 29.85 in1010.8 mb 0.00 in0.0 mm 0.00 in0.0 mm 0.00 in0.0 mm
08:56 AM 40.2°F4.6°C 15.8°F-9.0°C 37% 5.0 mph NW8.0 kmh NW -- 29.84 in1010.5 mb 0.00 in0.0 mm 0.00 in0.0 mm 0.00 in0.0 mm
08:55 AM 40.0°F4.4°C 15.5°F-9.2°C 37% 4.0 mph WNW6.4 kmh WNW -- 29.84 in1010.5 mb 0.00 in0.0 mm 0.00 in0.0 mm 0.00 in0.0 mm
08:54 AM 40.2°F4.6°C 15.8°F-9.0°C 37% 7.0 mph NW11.3 kmh NW -- 29.85 in1010.8 mb 0.00 in0.0 mm 0.00 in0.0 mm 0.00 in0.0 mm
08:53 AM 39.9°F4.4°C 15.5°F-9.2°C 37% 7.0 mph W11.3 kmh W -- 29.84 in1010.5 mb 0.00 in0.0 mm 0.00 in0.0 mm 0.00 in0.0 mm
08:52 AM 39.9°F4.4°C 15.5°F-9.2°C 37% 6.0 mph NW9.7 kmh NW -- 29.84 in1010.5 mb 0.00 in0.0 mm 0.00 in0.0 mm 0.00 in0.0 mm
08:51 AM 40.5°F4.7°C 16.0°F-8.9°C 37% 4.0 mph NW6.4 kmh NW -- 29.84 in1010.5 mb 0.00 in0.0 mm 0.00 in0.0 mm 0.00 in0.0 mm
08:50 AM 40.5°F4.7°C 16.0°F-8.9°C 37% 7.0 mph WNW11.3 kmh WNW -- 29.84 in1010.5 mb 0.00 in0.0 mm 0.00 in0.0 mm 0.00 in0.0 mm
08:49 AM 40.5°F4.7°C 14.7°F-9.6°C 35% 3.0 mph NNW4.8 kmh NNW -- 29.84 in1010.5 mb 0.00 in0.0 mm 0.00 in0.0 mm 0.00 in0.0 mm
08:48 AM 40.5°F4.7°C 16.0°F-8.9°C 37% 7.0 mph W11.3 kmh W -- 29.84 in1010.5 mb 0.00 in0.0 mm 0.00 in0.0 mm 0.00 in0.0 mm
08:47 AM 40.5°F4.7°C 16.0°F-8.9°C 37% 7.0 mph NW11.3 kmh NW -- 29.84 in1010.5 mb 0.00 in0.0 mm 0.00 in0.0 mm 0.00 in0.0 mm
08:46 AM 40.2°F4.6°C 15.8°F-9.0°C 37% 8.0 mph WNW12.9 kmh WNW -- 29.85 in1010.8 mb 0.00 in0.0 mm 0.00 in0.0 mm 0.00 in0.0 mm
08:45 AM 40.0°F4.4°C 15.5°F-9.2°C 37% 4.0 mph SW6.4 kmh SW -- 29.85 in1010.8 mb 0.00 in0.0 mm 0.00 in0.0 mm 0.00 in0.0 mm
08:44 AM 39.9°F4.4°C 15.5°F-9.2°C 37% 5.0 mph NNW8.0 kmh NNW -- 29.84 in1010.5 mb 0.00 in0.0 mm 0.00 in0.0 mm 0.00 in0.0 mm
08:43 AM 39.7°F4.3°C 15.4°F-9.2°C 37% 6.0 mph WNW9.7 kmh WNW -- 29.85 in1010.8 mb 0.00 in0.0 mm 0.00 in0.0 mm 0.00 in0.0 mm
08:42 AM 39.7°F4.3°C 15.4°F-9.2°C 37% 5.0 mph W8.0 kmh W -- 29.84 in1010.5 mb 0.00 in0.0 mm 0.00 in0.0 mm 0.00 in0.0 mm
08:41 AM 39.7°F4.3°C 15.4°F-9.2°C 37% 4.0 mph W6.4 kmh W -- 29.84 in1010.5 mb 0.00 in0.0 mm 0.00 in0.0 mm 0.00 in0.0 mm
08:40 AM 39.5°F4.2°C 15.2°F-9.3°C 37% 8.0 mph WNW12.9 kmh WNW -- 29.84 in1010.5 mb 0.00 in0.0 mm 0.00 in0.0 mm 0.00 in0.0 mm
08:39 AM 39.5°F4.2°C 15.2°F-9.3°C 37% 8.0 mph WNW12.9 kmh WNW -- 29.85 in1010.8 mb 0.00 in0.0 mm 0.00 in0.0 mm 0.00 in0.0 mm
08:38 AM 39.5°F4.2°C 15.2°F-9.3°C 37% 10.0 mph NW16.1 kmh NW -- 29.85 in1010.8 mb 0.00 in0.0 mm 0.00 in0.0 mm 0.00 in0.0 mm
08:37 AM 39.4°F4.1°C 15.0°F-9.4°C 37% 9.0 mph W14.5 kmh W -- 29.85 in1010.8 mb 0.00 in0.0 mm 0.00 in0.0 mm 0.00 in0.0 mm
08:36 AM 39.2°F4.0°C 16.1°F-8.8°C 39% 5.0 mph NW8.0 kmh NW -- 29.84 in1010.5 mb 0.00 in0.0 mm 0.00 in0.0 mm 0.00 in0.0 mm
08:35 AM 39.2°F4.0°C 16.1°F-8.8°C 39% 4.0 mph WNW6.4 kmh WNW -- 29.85 in1010.8 mb 0.00 in0.0 mm 0.00 in0.0 mm 0.00 in0.0 mm
08:34 AM 39.2°F4.0°C 16.1°F-8.8°C 39% 7.0 mph W11.3 kmh W -- 29.85 in1010.8 mb 0.00 in0.0 mm 0.00 in0.0 mm 0.00 in0.0 mm
08:33 AM 39.0°F3.9°C 15.9°F-8.9°C 39% 10.0 mph WNW16.1 kmh WNW -- 29.84 in1010.5 mb 0.00 in0.0 mm 0.00 in0.0 mm 0.00 in0.0 mm
08:32 AM 39.0°F3.9°C 15.9°F-8.9°C 39% 8.0 mph W12.9 kmh W -- 29.85 in1010.8 mb 0.00 in0.0 mm 0.00 in0.0 mm 0.00 in0.0 mm
08:31 AM 39.0°F3.9°C 15.9°F-8.9°C 39% 8.0 mph WNW12.9 kmh WNW -- 29.85 in1010.8 mb 0.00 in0.0 mm 0.00 in0.0 mm 0.00 in0.0 mm
08:30 AM 39.2°F4.0°C 16.1°F-8.8°C 39% 6.0 mph W9.7 kmh W -- 29.85 in1010.8 mb 0.00 in0.0 mm 0.00 in0.0 mm 0.00 in0.0 mm
08:29 AM 39.2°F4.0°C 16.1°F-8.8°C 39% 5.0 mph W8.0 kmh W -- 29.85 in1010.8 mb 0.00 in0.0 mm 0.00 in0.0 mm 0.00 in0.0 mm
08:28 AM 39.2°F4.0°C 16.1°F-8.8°C 39% 6.0 mph WNW9.7 kmh WNW -- 29.85 in1010.8 mb 0.00 in0.0 mm 0.00 in0.0 mm 0.00 in0.0 mm
08:27 AM 39.2°F4.0°C 16.1°F-8.8°C 39% 8.0 mph W12.9 kmh W -- 29.85 in1010.8 mb 0.00 in0.0 mm 0.00 in0.0 mm 0.00 in0.0 mm
08:26 AM 39.2°F4.0°C 16.1°F-8.8°C 39% 7.0 mph W11.3 kmh W -- 29.85 in1010.8 mb 0.00 in0.0 mm 0.00 in0.0 mm 0.00 in0.0 mm
08:25 AM 39.0°F3.9°C 16.5°F-8.6°C 40% 6.0 mph W9.7 kmh W -- 29.85 in1010.8 mb 0.00 in0.0 mm 0.00 in0.0 mm 0.00 in0.0 mm
08:24 AM 39.0°F3.9°C 16.5°F-8.6°C 40% 6.0 mph NW9.7 kmh NW -- 29.85 in1010.8 mb 0.00 in0.0 mm 0.00 in0.0 mm 0.00 in0.0 mm
08:23 AM 38.7°F3.7°C 16.2°F-8.8°C 40% 6.0 mph WNW9.7 kmh WNW -- 29.85 in1010.8 mb 0.00 in0.0 mm 0.00 in0.0 mm 0.00 in0.0 mm
08:22 AM 38.4°F3.6°C 16.0°F-8.9°C 40% 4.0 mph W6.4 kmh W -- 29.85 in1010.8 mb 0.00 in0.0 mm 0.00 in0.0 mm 0.00 in0.0 mm
08:21 AM 38.2°F3.4°C 15.7°F-9.1°C 40% 4.0 mph W6.4 kmh W -- 29.85 in1010.8 mb 0.00 in0.0 mm 0.00 in0.0 mm 0.00 in0.0 mm
08:20 AM 38.7°F3.7°C 16.2°F-8.8°C 40% 4.0 mph NNW6.4 kmh NNW -- 29.85 in1010.8 mb 0.00 in0.0 mm 0.00 in0.0 mm 0.00 in0.0 mm
08:19 AM 38.7°F3.7°C 16.2°F-8.8°C 40% 4.0 mph WNW6.4 kmh WNW -- 29.85 in1010.8 mb 0.00 in0.0 mm 0.00 in0.0 mm 0.00 in0.0 mm
08:18 AM 38.7°F3.7°C 16.2°F-8.8°C 40% 4.0 mph 6.4 kmh -- 29.85 in1010.8 mb 0.00 in0.0 mm 0.00 in0.0 mm 0.00 in0.0 mm
08:17 AM 38.2°F3.4°C 15.7°F-9.1°C 40% 4.0 mph NW6.4 kmh NW -- 29.85 in1010.8 mb 0.00 in0.0 mm 0.00 in0.0 mm 0.00 in0.0 mm
08:16 AM 38.2°F3.4°C 15.7°F-9.1°C 40% 3.0 mph NW4.8 kmh NW -- 29.85 in1010.8 mb 0.00 in0.0 mm 0.00 in0.0 mm 0.00 in0.0 mm
08:15 AM 38.7°F3.7°C 16.2°F-8.8°C 40% 3.0 mph NW4.8 kmh NW -- 29.85 in1010.8 mb 0.00 in0.0 mm 0.00 in0.0 mm 0.00 in0.0 mm
08:14 AM 38.7°F3.7°C 16.2°F-8.8°C 40% 4.0 mph NW6.4 kmh NW -- 29.85 in1010.8 mb 0.00 in0.0 mm 0.00 in0.0 mm 0.00 in0.0 mm
08:13 AM 38.4°F3.6°C 16.0°F-8.9°C 40% 5.0 mph WNW8.0 kmh WNW -- 29.85 in1010.8 mb 0.00 in0.0 mm 0.00 in0.0 mm 0.00 in0.0 mm
08:11 AM 38.0°F3.3°C 15.5°F-9.2°C 40% 3.0 mph NW4.8 kmh NW -- 29.86 in1011.2 mb 0.00 in0.0 mm 0.00 in0.0 mm 0.00 in0.0 mm
08:10 AM 38.0°F3.3°C 15.5°F-9.2°C 40% 4.0 mph WSW6.4 kmh WSW -- 29.86 in1011.2 mb 0.00 in0.0 mm 0.00 in0.0 mm 0.00 in0.0 mm
08:09 AM 38.2°F3.4°C 15.7°F-9.1°C 40% 4.0 mph WNW6.4 kmh WNW -- 29.86 in1011.2 mb 0.00 in0.0 mm 0.00 in0.0 mm 0.00 in0.0 mm
08:08 AM 37.7°F3.2°C 16.0°F-8.9°C 41% 4.0 mph NW6.4 kmh NW -- 29.86 in1011.2 mb 0.00 in0.0 mm 0.00 in0.0 mm 0.00 in0.0 mm
08:07 AM 37.4°F3.0°C 15.6°F-9.1°C 41% 2.0 mph WNW3.2 kmh WNW -- 29.86 in1011.2 mb 0.00 in0.0 mm 0.00 in0.0 mm 0.00 in0.0 mm
08:06 AM 37.2°F2.9°C 15.5°F-9.2°C 41% Calm Calm -- 29.86 in1011.2 mb 0.00 in0.0 mm 0.00 in0.0 mm 0.00 in0.0 mm
08:05 AM 37.2°F2.9°C 15.5°F-9.2°C 41% 1.0 mph WSW1.6 kmh WSW -- 29.86 in1011.2 mb 0.00 in0.0 mm 0.00 in0.0 mm 0.00 in0.0 mm
08:04 AM 37.4°F3.0°C 15.1°F-9.4°C 40% 2.0 mph NW3.2 kmh NW -- 29.86 in1011.2 mb 0.00 in0.0 mm 0.00 in0.0 mm 0.00 in0.0 mm
08:03 AM 37.4°F3.0°C 15.1°F-9.4°C 40% 2.0 mph W3.2 kmh W -- 29.85 in1010.8 mb 0.00 in0.0 mm 0.00 in0.0 mm 0.00 in0.0 mm
08:02 AM 37.4°F3.0°C 15.1°F-9.4°C 40% 3.0 mph W4.8 kmh W -- 29.85 in1010.8 mb 0.00 in0.0 mm 0.00 in0.0 mm 0.00 in0.0 mm
08:01 AM 37.4°F3.0°C 15.1°F-9.4°C 40% Calm Calm -- 29.85 in1010.8 mb 0.00 in0.0 mm 0.00 in0.0 mm 0.00 in0.0 mm
08:00 AM 37.7°F3.2°C 15.4°F-9.2°C 40% Calm Calm -- 29.85 in1010.8 mb 0.00 in0.0 mm 0.00 in0.0 mm 0.00 in0.0 mm
07:59 AM 37.5°F3.1°C 15.8°F-9.0°C 41% Calm Calm -- 29.85 in1010.8 mb 0.00 in0.0 mm 0.00 in0.0 mm 0.00 in0.0 mm
07:58 AM 36.9°F2.7°C 16.2°F-8.8°C 43% Calm Calm -- 29.85 in1010.8 mb 0.00 in0.0 mm 0.00 in0.0 mm 0.00 in0.0 mm
07:57 AM 36.5°F2.5°C 14.8°F-9.6°C 41% Calm Calm -- 29.85 in1010.8 mb 0.00 in0.0 mm 0.00 in0.0 mm 0.00 in0.0 mm
07:56 AM 36.5°F2.5°C 14.8°F-9.6°C 41% 2.0 mph W3.2 kmh W -- 29.85 in1010.8 mb 0.00 in0.0 mm 0.00 in0.0 mm 0.00 in0.0 mm
07:55 AM 36.7°F2.6°C 15.0°F-9.4°C 41% 3.0 mph NW4.8 kmh NW -- 29.85 in1010.8 mb 0.00 in0.0 mm 0.00 in0.0 mm 0.00 in0.0 mm
07:54 AM 36.7°F2.6°C 14.4°F-9.8°C 40% 4.0 mph WNW6.4 kmh WNW -- 29.86 in1011.2 mb 0.00 in0.0 mm 0.00 in0.0 mm 0.00 in0.0 mm
07:53 AM 36.7°F2.6°C 14.4°F-9.8°C 40% 2.0 mph NNW3.2 kmh NNW -- 29.86 in1011.2 mb 0.00 in0.0 mm 0.00 in0.0 mm 0.00 in0.0 mm
07:52 AM 36.5°F2.5°C 14.8°F-9.6°C 41% 1.0 mph NW1.6 kmh NW -- 29.86 in1011.2 mb 0.00 in0.0 mm 0.00 in0.0 mm 0.00 in0.0 mm
07:51 AM 36.5°F2.5°C 15.9°F-8.9°C 43% 3.0 mph WNW4.8 kmh WNW -- 29.85 in1010.8 mb 0.00 in0.0 mm 0.00 in0.0 mm 0.00 in0.0 mm
07:50 AM 36.5°F2.5°C 15.9°F-8.9°C 43% 2.0 mph WNW3.2 kmh WNW -- 29.85 in1010.8 mb 0.00 in0.0 mm 0.00 in0.0 mm 0.00 in0.0 mm
07:49 AM 36.7°F2.6°C 16.1°F-8.8°C 43% 2.0 mph W3.2 kmh W -- 29.85 in1010.8 mb 0.00 in0.0 mm 0.00 in0.0 mm 0.00 in0.0 mm
07:48 AM 36.9°F2.7°C 16.2°F-8.8°C 43% 2.0 mph W3.2 kmh W -- 29.86 in1011.2 mb 0.00 in0.0 mm 0.00 in0.0 mm 0.00 in0.0 mm
07:47 AM 36.7°F2.6°C 16.1°F-8.8°C 43% 2.0 mph NNE3.2 kmh NNE -- 29.86 in1011.2 mb 0.00 in0.0 mm 0.00 in0.0 mm 0.00 in0.0 mm
07:46 AM 35.5°F1.9°C 16.0°F-8.9°C 45% 2.0 mph NE3.2 kmh NE -- 29.86 in1011.2 mb 0.00 in0.0 mm 0.00 in0.0 mm 0.00 in0.0 mm
07:45 AM 35.4°F1.9°C 16.0°F-8.9°C 45% 1.0 mph W1.6 kmh W -- 29.86 in1011.2 mb 0.00 in0.0 mm 0.00 in0.0 mm 0.00 in0.0 mm
07:44 AM 35.5°F1.9°C 16.0°F-8.9°C 45% 2.0 mph W3.2 kmh W -- 29.86 in1011.2 mb 0.00 in0.0 mm 0.00 in0.0 mm 0.00 in0.0 mm
07:43 AM 35.7°F2.1°C 16.3°F-8.7°C 45% Calm Calm -- 29.85 in1010.8 mb 0.00 in0.0 mm 0.00 in0.0 mm 0.00 in0.0 mm
07:42 AM 35.5°F1.9°C 16.0°F-8.9°C 45% 1.0 mph NNW1.6 kmh NNW -- 29.86 in1011.2 mb 0.00 in0.0 mm 0.00 in0.0 mm 0.00 in0.0 mm
07:41 AM 35.4°F1.9°C 16.0°F-8.9°C 45% 2.0 mph NW3.2 kmh NW -- 29.86 in1011.2 mb 0.00 in0.0 mm 0.00 in0.0 mm 0.00 in0.0 mm
07:40 AM 35.4°F1.9°C 16.0°F-8.9°C 45% 3.0 mph NNW4.8 kmh NNW -- 29.86 in1011.2 mb 0.00 in0.0 mm 0.00 in0.0 mm 0.00 in0.0 mm
07:39 AM 35.5°F1.9°C 16.0°F-8.9°C 45% 2.0 mph WNW3.2 kmh WNW -- 29.86 in1011.2 mb 0.00 in0.0 mm 0.00 in0.0 mm 0.00 in0.0 mm
07:38 AM 35.4°F1.9°C 15.5°F-9.2°C 44% 2.0 mph NW3.2 kmh NW -- 29.86 in1011.2 mb 0.00 in0.0 mm 0.00 in0.0 mm 0.00 in0.0 mm
07:37 AM 35.1°F1.7°C 15.1°F-9.4°C 44% 3.0 mph NNE4.8 kmh NNE -- 29.85 in1010.8 mb 0.00 in0.0 mm 0.00 in0.0 mm 0.00 in0.0 mm
07:36 AM 35.0°F1.7°C 15.1°F-9.4°C 44% 4.0 mph NNW6.4 kmh NNW -- 29.86 in1011.2 mb 0.00 in0.0 mm 0.00 in0.0 mm 0.00 in0.0 mm
07:35 AM 35.0°F1.7°C 15.1°F-9.4°C 44% 4.0 mph NE6.4 kmh NE -- 29.86 in1011.2 mb 0.00 in0.0 mm 0.00 in0.0 mm 0.00 in0.0 mm
07:34 AM 35.0°F1.7°C 15.1°F-9.4°C 44% 5.0 mph NNE8.0 kmh NNE -- 29.86 in1011.2 mb 0.00 in0.0 mm 0.00 in0.0 mm 0.00 in0.0 mm
07:33 AM 34.7°F1.5°C 15.3°F-9.3°C 45% 4.0 mph 6.4 kmh -- 29.86 in1011.2 mb 0.00 in0.0 mm 0.00 in0.0 mm 0.00 in0.0 mm
07:32 AM 34.5°F1.4°C 15.2°F-9.3°C 45% 4.0 mph NW6.4 kmh NW -- 29.86 in1011.2 mb 0.00 in0.0 mm 0.00 in0.0 mm 0.00 in0.0 mm
07:31 AM 34.5°F1.4°C 15.2°F-9.3°C 45% 4.0 mph WNW6.4 kmh WNW -- 29.86 in1011.2 mb 0.00 in0.0 mm 0.00 in0.0 mm 0.00 in0.0 mm
07:30 AM 34.2°F1.2°C 14.8°F-9.6°C 45% 3.0 mph NNE4.8 kmh NNE -- 29.86 in1011.2 mb 0.00 in0.0 mm 0.00 in0.0 mm 0.00 in0.0 mm
07:29 AM 34.5°F1.4°C 15.2°F-9.3°C 45% 2.0 mph NW3.2 kmh NW -- 29.86 in1011.2 mb 0.00 in0.0 mm 0.00 in0.0 mm 0.00 in0.0 mm
07:28 AM 34.7°F1.5°C 15.3°F-9.3°C 45% 3.0 mph NNW4.8 kmh NNW -- 29.86 in1011.2 mb 0.00 in0.0 mm 0.00 in0.0 mm 0.00 in0.0 mm
07:27 AM 34.5°F1.4°C 15.2°F-9.3°C 45% 4.0 mph NW6.4 kmh NW -- 29.86 in1011.2 mb 0.00 in0.0 mm 0.00 in0.0 mm 0.00 in0.0 mm
07:26 AM 34.2°F1.2°C 14.8°F-9.6°C 45% 3.0 mph NNW4.8 kmh NNW -- 29.86 in1011.2 mb 0.00 in0.0 mm 0.00 in0.0 mm 0.00 in0.0 mm
07:25 AM 34.2°F1.2°C 14.8°F-9.6°C 45% 2.0 mph NNW3.2 kmh NNW -- 29.86 in1011.2 mb 0.00 in0.0 mm 0.00 in0.0 mm 0.00 in0.0 mm
07:24 AM 34.2°F1.2°C 14.8°F-9.6°C 45% 3.0 mph NNW4.8 kmh NNW -- 29.86 in1011.2 mb 0.00 in0.0 mm 0.00 in0.0 mm 0.00 in0.0 mm
07:23 AM 34.0°F1.1°C 14.7°F-9.6°C 45% 4.0 mph 6.4 kmh -- 29.86 in1011.2 mb 0.00 in0.0 mm 0.00 in0.0 mm 0.00 in0.0 mm
07:22 AM 34.0°F1.1°C 14.7°F-9.6°C 45% 4.0 mph WNW6.4 kmh WNW -- 29.87 in1011.5 mb 0.00 in0.0 mm 0.00 in0.0 mm 0.00 in0.0 mm
07:21 AM 33.8°F1.0°C 14.5°F-9.7°C 45% 3.0 mph W4.8 kmh W -- 29.86 in1011.2 mb 0.00 in0.0 mm 0.00 in0.0 mm 0.00 in0.0 mm
07:20 AM 34.0°F1.1°C 14.7°F-9.6°C 45% 5.0 mph NNW8.0 kmh NNW -- 29.86 in1011.2 mb 0.00 in0.0 mm 0.00 in0.0 mm 0.00 in0.0 mm
07:19 AM 34.0°F1.1°C 14.7°F-9.6°C 45% 2.0 mph NNW3.2 kmh NNW -- 29.86 in1011.2 mb 0.00 in0.0 mm 0.00 in0.0 mm 0.00 in0.0 mm
07:18 AM 34.0°F1.1°C 14.7°F-9.6°C 45% 4.0 mph NW6.4 kmh NW -- 29.86 in1011.2 mb 0.00 in0.0 mm 0.00 in0.0 mm 0.00 in0.0 mm
07:17 AM 33.8°F1.0°C 14.5°F-9.7°C 45% 5.0 mph WNW8.0 kmh WNW -- 29.86 in1011.2 mb 0.00 in0.0 mm 0.00 in0.0 mm 0.00 in0.0 mm
07:16 AM 33.4°F0.8°C 14.2°F-9.9°C 45% 3.0 mph W4.8 kmh W -- 29.87 in1011.5 mb 0.00 in0.0 mm 0.00 in0.0 mm 0.00 in0.0 mm
07:15 AM 33.2°F0.7°C 14.0°F-10.0°C 45% 5.0 mph NW8.0 kmh NW -- 29.87 in1011.5 mb 0.00 in0.0 mm 0.00 in0.0 mm 0.00 in0.0 mm
07:14 AM 33.2°F0.7°C 14.0°F-10.0°C 45% 5.0 mph W8.0 kmh W -- 29.86 in1011.2 mb 0.00 in0.0 mm 0.00 in0.0 mm 0.00 in0.0 mm
07:13 AM 33.2°F0.7°C 14.0°F-10.0°C 45% 3.0 mph NW4.8 kmh NW -- 29.86 in1011.2 mb 0.00 in0.0 mm 0.00 in0.0 mm 0.00 in0.0 mm
07:12 AM 33.2°F0.7°C 14.0°F-10.0°C 45% 3.0 mph WNW4.8 kmh WNW -- 29.86 in1011.2 mb 0.00 in0.0 mm 0.00 in0.0 mm 0.00 in0.0 mm
07:11 AM 33.2°F0.7°C 14.0°F-10.0°C 45% 5.0 mph W8.0 kmh W -- 29.86 in1011.2 mb 0.00 in0.0 mm 0.00 in0.0 mm 0.00 in0.0 mm
07:10 AM 33.2°F0.7°C 14.0°F-10.0°C 45% 3.0 mph NW4.8 kmh NW -- 29.87 in1011.5 mb 0.00 in0.0 mm 0.00 in0.0 mm 0.00 in0.0 mm
07:08 AM 33.2°F0.7°C 14.0°F-10.0°C 45% 5.0 mph WNW8.0 kmh WNW -- 29.87 in1011.5 mb 0.00 in0.0 mm 0.00 in0.0 mm 0.00 in0.0 mm
07:07 AM 33.2°F0.7°C 14.0°F-10.0°C 45% 5.0 mph W8.0 kmh W -- 29.87 in1011.5 mb 0.00 in0.0 mm 0.00 in0.0 mm 0.00 in0.0 mm
07:06 AM 33.0°F0.6°C 13.8°F-10.1°C 45% 8.0 mph W12.9 kmh W -- 29.86 in1011.2 mb 0.00 in0.0 mm 0.00 in0.0 mm 0.00 in0.0 mm
07:05 AM 32.9°F0.5°C 14.2°F-9.9°C 46% 6.0 mph WNW9.7 kmh WNW -- 29.86 in1011.2 mb 0.00 in0.0 mm 0.00 in0.0 mm 0.00 in0.0 mm
07:04 AM 32.5°F0.3°C 13.8°F-10.1°C 46% 4.0 mph W6.4 kmh W -- 29.87 in1011.5 mb 0.00 in0.0 mm 0.00 in0.0 mm 0.00 in0.0 mm
07:03 AM 32.4°F0.2°C 13.7°F-10.2°C 46% 5.0 mph WNW8.0 kmh WNW -- 29.87 in1011.5 mb 0.00 in0.0 mm 0.00 in0.0 mm 0.00 in0.0 mm
07:02 AM 31.9°F-0.1°C 14.2°F-9.9°C 48% 6.0 mph W9.7 kmh W -- 29.86 in1011.2 mb 0.00 in0.0 mm 0.00 in0.0 mm 0.00 in0.0 mm
07:01 AM 31.6°F-0.2°C 14.5°F-9.7°C 49% 6.0 mph W9.7 kmh W -- 29.86 in1011.2 mb 0.00 in0.0 mm 0.00 in0.0 mm 0.00 in0.0 mm
07:00 AM 31.5°F-0.3°C 14.3°F-9.8°C 49% 5.0 mph WSW8.0 kmh WSW -- 29.86 in1011.2 mb 0.00 in0.0 mm 0.00 in0.0 mm 0.00 in0.0 mm
06:59 AM 31.1°F-0.5°C 14.4°F-9.8°C 50% 5.0 mph S8.0 kmh S -- 29.86 in1011.2 mb 0.00 in0.0 mm 0.00 in0.0 mm 0.00 in0.0 mm
06:58 AM 30.7°F-0.7°C 14.1°F-9.9°C 50% 4.0 mph WNW6.4 kmh WNW -- 29.86 in1011.2 mb 0.00 in0.0 mm 0.00 in0.0 mm 0.00 in0.0 mm
06:57 AM 30.5°F-0.8°C 13.9°F-10.1°C 50% 5.0 mph WNW8.0 kmh WNW -- 29.86 in1011.2 mb 0.00 in0.0 mm 0.00 in0.0 mm 0.00 in0.0 mm
06:56 AM 30.1°F-1.1°C 13.4°F-10.3°C 50% 5.0 mph W8.0 kmh W -- 29.86 in1011.2 mb 0.00 in0.0 mm 0.00 in0.0 mm 0.00 in0.0 mm
06:55 AM 30.0°F-1.1°C 13.9°F-10.1°C 51% 5.0 mph W8.0 kmh W -- 29.86 in1011.2 mb 0.00 in0.0 mm 0.00 in0.0 mm 0.00 in0.0 mm
06:54 AM 29.6°F-1.3°C 14.4°F-9.8°C 53% 6.0 mph W9.7 kmh W -- 29.86 in1011.2 mb 0.00 in0.0 mm 0.00 in0.0 mm 0.00 in0.0 mm
06:53 AM 29.5°F-1.4°C 14.3°F-9.8°C 53% 6.0 mph W9.7 kmh W -- 29.86 in1011.2 mb 0.00 in0.0 mm 0.00 in0.0 mm 0.00 in0.0 mm
06:52 AM 29.5°F-1.4°C 14.3°F-9.8°C 53% 4.0 mph NW6.4 kmh NW -- 29.85 in1010.8 mb 0.00 in0.0 mm 0.00 in0.0 mm 0.00 in0.0 mm
06:51 AM 29.5°F-1.4°C 14.3°F-9.8°C 53% 4.0 mph WNW6.4 kmh WNW -- 29.86 in1011.2 mb 0.00 in0.0 mm 0.00 in0.0 mm 0.00 in0.0 mm
06:50 AM 29.5°F-1.4°C 14.3°F-9.8°C 53% 6.0 mph NW9.7 kmh NW -- 29.86 in1011.2 mb 0.00 in0.0 mm 0.00 in0.0 mm 0.00 in0.0 mm
06:49 AM 29.5°F-1.4°C 14.3°F-9.8°C 53% 5.0 mph W8.0 kmh W -- 29.86 in1011.2 mb 0.00 in0.0 mm 0.00 in0.0 mm 0.00 in0.0 mm
06:48 AM 29.5°F-1.4°C 14.3°F-9.8°C 53% 4.0 mph W6.4 kmh W -- 29.86 in1011.2 mb 0.00 in0.0 mm 0.00 in0.0 mm 0.00 in0.0 mm
06:47 AM 29.2°F-1.6°C 14.4°F-9.8°C 54% 5.0 mph WNW8.0 kmh WNW -- 29.86 in1011.2 mb 0.00 in0.0 mm 0.00 in0.0 mm 0.00 in0.0 mm
06:46 AM 29.2°F-1.6°C 14.4°F-9.8°C 54% 4.0 mph NNW6.4 kmh NNW -- 29.86 in1011.2 mb 0.00 in0.0 mm 0.00 in0.0 mm 0.00 in0.0 mm
06:45 AM 29.2°F-1.6°C 14.4°F-9.8°C 54% 6.0 mph WNW9.7 kmh WNW -- 29.86 in1011.2 mb 0.00 in0.0 mm 0.00 in0.0 mm 0.00 in0.0 mm
06:44 AM 29.2°F-1.6°C 14.4°F-9.8°C 54% 5.0 mph NW8.0 kmh NW -- 29.86 in1011.2 mb 0.00 in0.0 mm 0.00 in0.0 mm 0.00 in0.0 mm
06:43 AM 29.1°F-1.6°C 14.4°F-9.8°C 54% 8.0 mph NNW12.9 kmh NNW -- 29.86 in1011.2 mb 0.00 in0.0 mm 0.00 in0.0 mm 0.00 in0.0 mm
06:42 AM 28.8°F-1.8°C 14.0°F-10.0°C 54% 7.0 mph NW11.3 kmh NW -- 29.86 in1011.2 mb 0.00 in0.0 mm 0.00 in0.0 mm 0.00 in0.0 mm
06:41 AM 28.8°F-1.8°C 14.0°F-10.0°C 54% 4.0 mph 6.4 kmh -- 29.86 in1011.2 mb 0.00 in0.0 mm 0.00 in0.0 mm 0.00 in0.0 mm
06:40 AM 28.8°F-1.8°C 14.0°F-10.0°C 54% 4.0 mph W6.4 kmh W -- 29.86 in1011.2 mb 0.00 in0.0 mm 0.00 in0.0 mm 0.00 in0.0 mm
06:37 AM 29.1°F-1.6°C 13.9°F-10.1°C 53% 5.0 mph WNW8.0 kmh WNW -- 29.86 in1011.2 mb 0.00 in0.0 mm 0.00 in0.0 mm 0.00 in0.0 mm
06:36 AM 29.1°F-1.6°C 13.9°F-10.1°C 53% 4.0 mph NW6.4 kmh NW -- 29.86 in1011.2 mb 0.00 in0.0 mm 0.00 in0.0 mm 0.00 in0.0 mm
06:35 AM 29.1°F-1.6°C 13.9°F-10.1°C 53% 5.0 mph WNW8.0 kmh WNW -- 29.86 in1011.2 mb 0.00 in0.0 mm 0.00 in0.0 mm 0.00 in0.0 mm
06:34 AM 29.1°F-1.6°C 13.1°F-10.5°C 51% 7.0 mph WNW11.3 kmh WNW -- 29.87 in1011.5 mb 0.00 in0.0 mm 0.00 in0.0 mm 0.00 in0.0 mm
06:33 AM 29.1°F-1.6°C 13.1°F-10.5°C 51% 6.0 mph W9.7 kmh W -- 29.86 in1011.2 mb 0.00 in0.0 mm 0.00 in0.0 mm 0.00 in0.0 mm
06:32 AM 29.1°F-1.6°C 13.1°F-10.5°C 51% 7.0 mph NW11.3 kmh NW -- 29.87 in1011.5 mb 0.00 in0.0 mm 0.00 in0.0 mm 0.00 in0.0 mm
06:31 AM 29.1°F-1.6°C 13.1°F-10.5°C 51% 5.0 mph WNW8.0 kmh WNW -- 29.86 in1011.2 mb 0.00 in0.0 mm 0.00 in0.0 mm 0.00 in0.0 mm
06:30 AM 29.2°F-1.6°C 13.1°F-10.5°C 51% 6.0 mph NW9.7 kmh NW -- 29.86 in1011.2 mb 0.00 in0.0 mm 0.00 in0.0 mm 0.00 in0.0 mm
06:29 AM 29.2°F-1.6°C 13.1°F-10.5°C 51% 5.0 mph NW8.0 kmh NW -- 29.86 in1011.2 mb 0.00 in0.0 mm 0.00 in0.0 mm 0.00 in0.0 mm
06:28 AM 29.2°F-1.6°C 12.6°F-10.8°C 50% 6.0 mph NNW9.7 kmh NNW -- 29.87 in1011.5 mb 0.00 in0.0 mm 0.00 in0.0 mm 0.00 in0.0 mm
06:27 AM 29.5°F-1.4°C 12.9°F-10.6°C 50% 6.0 mph NW9.7 kmh NW -- 29.87 in1011.5 mb 0.00 in0.0 mm 0.00 in0.0 mm 0.00 in0.0 mm
06:26 AM 29.5°F-1.4°C 12.9°F-10.6°C 50% 5.0 mph NW8.0 kmh NW -- 29.87 in1011.5 mb 0.00 in0.0 mm 0.00 in0.0 mm 0.00 in0.0 mm
06:25 AM 29.5°F-1.4°C 12.9°F-10.6°C 50% 5.0 mph W8.0 kmh W -- 29.87 in1011.5 mb 0.00 in0.0 mm 0.00 in0.0 mm 0.00 in0.0 mm
06:24 AM 29.5°F-1.4°C 12.9°F-10.6°C 50% 8.0 mph WNW12.9 kmh WNW -- 29.87 in1011.5 mb 0.00 in0.0 mm 0.00 in0.0 mm 0.00 in0.0 mm
06:22 AM 29.5°F-1.4°C 12.9°F-10.6°C 50% 5.0 mph W8.0 kmh W -- 29.87 in1011.5 mb 0.00 in0.0 mm 0.00 in0.0 mm 0.00 in0.0 mm
06:21 AM 29.5°F-1.4°C 12.9°F-10.6°C 50% 6.0 mph WNW9.7 kmh WNW -- 29.87 in1011.5 mb 0.00 in0.0 mm 0.00 in0.0 mm 0.00 in0.0 mm
06:20 AM 29.5°F-1.4°C 12.9°F-10.6°C 50% 8.0 mph W12.9 kmh W -- 29.87 in1011.5 mb 0.00 in0.0 mm 0.00 in0.0 mm 0.00 in0.0 mm
06:19 AM 29.5°F-1.4°C 12.9°F-10.6°C 50% 9.0 mph WNW14.5 kmh WNW -- 29.87 in1011.5 mb 0.00 in0.0 mm 0.00 in0.0 mm 0.00 in0.0 mm
06:18 AM 29.5°F-1.4°C 12.9°F-10.6°C 50% 6.0 mph W9.7 kmh W -- 29.87 in1011.5 mb 0.00 in0.0 mm 0.00 in0.0 mm 0.00 in0.0 mm
06:17 AM 29.5°F-1.4°C 12.9°F-10.6°C 50% 7.0 mph W11.3 kmh W -- 29.87 in1011.5 mb 0.00 in0.0 mm 0.00 in0.0 mm 0.00 in0.0 mm
06:16 AM 29.5°F-1.4°C 12.9°F-10.6°C 50% 7.0 mph WNW11.3 kmh WNW -- 29.87 in1011.5 mb 0.00 in0.0 mm 0.00 in0.0 mm 0.00 in0.0 mm
06:15 AM 29.5°F-1.4°C 12.9°F-10.6°C 50% 9.0 mph W14.5 kmh W -- 29.87 in1011.5 mb 0.00 in0.0 mm 0.00 in0.0 mm 0.00 in0.0 mm
06:14 AM 29.2°F-1.6°C 12.6°F-10.8°C 50% 9.0 mph WNW14.5 kmh WNW -- 29.87 in1011.5 mb 0.00 in0.0 mm 0.00 in0.0 mm 0.00 in0.0 mm
06:13 AM 29.2°F-1.6°C 12.6°F-10.8°C 50% 6.0 mph WNW9.7 kmh WNW -- 29.87 in1011.5 mb 0.00 in0.0 mm 0.00 in0.0 mm 0.00 in0.0 mm
06:12 AM 29.2°F-1.6°C 12.6°F-10.8°C 50% 7.0 mph NW11.3 kmh NW -- 29.87 in1011.5 mb 0.00 in0.0 mm 0.00 in0.0 mm 0.00 in0.0 mm
06:11 AM 29.2°F-1.6°C 12.6°F-10.8°C 50% 5.0 mph NW8.0 kmh NW -- 29.87 in1011.5 mb 0.00 in0.0 mm 0.00 in0.0 mm 0.00 in0.0 mm
06:10 AM 29.2°F-1.6°C 12.6°F-10.8°C 50% 7.0 mph WSW11.3 kmh WSW -- 29.86 in1011.2 mb 0.00 in0.0 mm 0.00 in0.0 mm 0.00 in0.0 mm
06:09 AM 29.2°F-1.6°C 12.6°F-10.8°C 50% 8.0 mph W12.9 kmh W -- 29.86 in1011.2 mb 0.00 in0.0 mm 0.00 in0.0 mm 0.00 in0.0 mm
06:08 AM 29.1°F-1.6°C 13.1°F-10.5°C 51% 7.0 mph WNW11.3 kmh WNW -- 29.87 in1011.5 mb 0.00 in0.0 mm 0.00 in0.0 mm 0.00 in0.0 mm
06:07 AM 29.1°F-1.6°C 13.1°F-10.5°C 51% 6.0 mph WNW9.7 kmh WNW -- 29.86 in1011.2 mb 0.00 in0.0 mm 0.00 in0.0 mm 0.00 in0.0 mm
06:06 AM 28.8°F-1.8°C 12.7°F-10.7°C 51% 6.0 mph WNW9.7 kmh WNW -- 29.86 in1011.2 mb 0.00 in0.0 mm 0.00 in0.0 mm 0.00 in0.0 mm
06:05 AM 28.8°F-1.8°C 12.7°F-10.7°C 51% 7.0 mph WNW11.3 kmh WNW -- 29.86 in1011.2 mb 0.00 in0.0 mm 0.00 in0.0 mm 0.00 in0.0 mm
06:04 AM 28.8°F-1.8°C 12.7°F-10.7°C 51% 6.0 mph W9.7 kmh W -- 29.87 in1011.5 mb 0.00 in0.0 mm 0.00 in0.0 mm 0.00 in0.0 mm
06:03 AM 28.7°F-1.8°C 12.7°F-10.7°C 51% 6.0 mph NW9.7 kmh NW -- 29.86 in1011.2 mb 0.00 in0.0 mm 0.00 in0.0 mm 0.00 in0.0 mm
06:02 AM 28.7°F-1.8°C 13.6°F-10.2°C 53% 8.0 mph WNW12.9 kmh WNW -- 29.86 in1011.2 mb 0.00 in0.0 mm 0.00 in0.0 mm 0.00 in0.0 mm
06:01 AM 28.6°F-1.9°C 13.4°F-10.3°C 53% 5.0 mph WSW8.0 kmh WSW -- 29.86 in1011.2 mb 0.00 in0.0 mm 0.00 in0.0 mm 0.00 in0.0 mm
06:00 AM 28.6°F-1.9°C 13.4°F-10.3°C 53% 4.0 mph WNW6.4 kmh WNW -- 29.86 in1011.2 mb 0.00 in0.0 mm 0.00 in0.0 mm 0.00 in0.0 mm
05:59 AM 28.6°F-1.9°C 13.4°F-10.3°C 53% 6.0 mph WNW9.7 kmh WNW -- 29.86 in1011.2 mb 0.00 in0.0 mm 0.00 in0.0 mm 0.00 in0.0 mm
05:58 AM 28.6°F-1.9°C 13.4°F-10.3°C 53% 6.0 mph NNW9.7 kmh NNW -- 29.86 in1011.2 mb 0.00 in0.0 mm 0.00 in0.0 mm 0.00 in0.0 mm
05:57 AM 28.3°F-2.1°C 13.1°F-10.5°C 53% 6.0 mph WNW9.7 kmh WNW -- 29.86 in1011.2 mb 0.00 in0.0 mm 0.00 in0.0 mm 0.00 in0.0 mm
05:56 AM 28.3°F-2.1°C 13.1°F-10.5°C 53% 7.0 mph NNW11.3 kmh NNW -- 29.86 in1011.2 mb 0.00 in0.0 mm 0.00 in0.0 mm 0.00 in0.0 mm
05:55 AM 28.2°F-2.1°C 13.1°F-10.5°C 53% 6.0 mph WNW9.7 kmh WNW -- 29.86 in1011.2 mb 0.00 in0.0 mm 0.00 in0.0 mm 0.00 in0.0 mm
05:54 AM 28.2°F-2.1°C 13.1°F-10.5°C 53% 6.0 mph NW9.7 kmh NW -- 29.86 in1011.2 mb 0.00 in0.0 mm 0.00 in0.0 mm 0.00 in0.0 mm
05:53 AM 28.2°F-2.1°C 13.1°F-10.5°C 53% 6.0 mph NNW9.7 kmh NNW -- 29.86 in1011.2 mb 0.00 in0.0 mm 0.00 in0.0 mm 0.00 in0.0 mm
05:52 AM 28.2°F-2.1°C 13.1°F-10.5°C 53% 5.0 mph WNW8.0 kmh WNW -- 29.86 in1011.2 mb 0.00 in0.0 mm 0.00 in0.0 mm 0.00 in0.0 mm
05:51 AM 28.2°F-2.1°C 13.1°F-10.5°C 53% 5.0 mph NW8.0 kmh NW -- 29.86 in1011.2 mb 0.00 in0.0 mm 0.00 in0.0 mm 0.00 in0.0 mm
05:50 AM 28.2°F-2.1°C 13.1°F-10.5°C 53% 7.0 mph WNW11.3 kmh WNW -- 29.87 in1011.5 mb 0.00 in0.0 mm 0.00 in0.0 mm 0.00 in0.0 mm
05:49 AM 28.2°F-2.1°C 13.1°F-10.5°C 53% 6.0 mph W9.7 kmh W -- 29.86 in1011.2 mb 0.00 in0.0 mm 0.00 in0.0 mm 0.00 in0.0 mm
05:48 AM 27.9°F-2.3°C 13.2°F-10.4°C 54% 6.0 mph WNW9.7 kmh WNW -- 29.86 in1011.2 mb 0.00 in0.0 mm 0.00 in0.0 mm 0.00 in0.0 mm
05:47 AM 27.9°F-2.3°C 13.2°F-10.4°C 54% 5.0 mph W8.0 kmh W -- 29.86 in1011.2 mb 0.00 in0.0 mm 0.00 in0.0 mm 0.00 in0.0 mm
05:46 AM 27.9°F-2.3°C 13.2°F-10.4°C 54% 5.0 mph NW8.0 kmh NW -- 29.86 in1011.2 mb 0.00 in0.0 mm 0.00 in0.0 mm 0.00 in0.0 mm
05:45 AM 27.9°F-2.3°C 13.2°F-10.4°C 54% 4.0 mph W6.4 kmh W -- 29.86 in1011.2 mb 0.00 in0.0 mm 0.00 in0.0 mm 0.00 in0.0 mm
05:44 AM 27.9°F-2.3°C 13.2°F-10.4°C 54% 5.0 mph NW8.0 kmh NW -- 29.86 in1011.2 mb 0.00 in0.0 mm 0.00 in0.0 mm 0.00 in0.0 mm
05:43 AM 27.9°F-2.3°C 13.2°F-10.4°C 54% 6.0 mph W9.7 kmh W -- 29.86 in1011.2 mb 0.00 in0.0 mm 0.00 in0.0 mm 0.00 in0.0 mm
05:41 AM 27.9°F-2.3°C 13.2°F-10.4°C 54% 5.0 mph NW8.0 kmh NW -- 29.86 in1011.2 mb 0.00 in0.0 mm 0.00 in0.0 mm 0.00 in0.0 mm
05:40 AM 27.9°F-2.3°C 13.2°F-10.4°C 54% 4.0 mph NW6.4 kmh NW -- 29.86 in1011.2 mb 0.00 in0.0 mm 0.00 in0.0 mm 0.00 in0.0 mm
05:38 AM 27.9°F-2.3°C 13.2°F-10.4°C 54% 6.0 mph WNW9.7 kmh WNW -- 29.86 in1011.2 mb 0.00 in0.0 mm 0.00 in0.0 mm 0.00 in0.0 mm
05:35 AM 27.8°F-2.3°C 13.6°F-10.2°C 55% 6.0 mph WNW9.7 kmh WNW -- 29.86 in1011.2 mb 0.00 in0.0 mm 0.00 in0.0 mm 0.00 in0.0 mm
05:34 AM 27.9°F-2.3°C 13.6°F-10.2°C 55% 4.0 mph WNW6.4 kmh WNW -- 29.86 in1011.2 mb 0.00 in0.0 mm 0.00 in0.0 mm 0.00 in0.0 mm
05:33 AM 27.9°F-2.3°C 13.6°F-10.2°C 55% 5.0 mph NNW8.0 kmh NNW -- 29.86 in1011.2 mb 0.00 in0.0 mm 0.00 in0.0 mm 0.00 in0.0 mm
05:32 AM 27.9°F-2.3°C 13.6°F-10.2°C 55% 5.0 mph W8.0 kmh W -- 29.86 in1011.2 mb 0.00 in0.0 mm 0.00 in0.0 mm 0.00 in0.0 mm
05:31 AM 27.9°F-2.3°C 13.6°F-10.2°C 55% 5.0 mph NW8.0 kmh NW -- 29.87 in1011.5 mb 0.00 in0.0 mm 0.00 in0.0 mm 0.00 in0.0 mm
05:30 AM 27.9°F-2.3°C 13.6°F-10.2°C 55% 6.0 mph WNW9.7 kmh WNW -- 29.86 in1011.2 mb 0.00 in0.0 mm 0.00 in0.0 mm 0.00 in0.0 mm
05:28 AM 27.9°F-2.3°C 13.6°F-10.2°C 55% 6.0 mph W9.7 kmh W -- 29.86 in1011.2 mb 0.00 in0.0 mm 0.00 in0.0 mm 0.00 in0.0 mm
05:27 AM 27.8°F-2.3°C 13.6°F-10.2°C 55% 6.0 mph W9.7 kmh W -- 29.87 in1011.5 mb 0.00 in0.0 mm 0.00 in0.0 mm 0.00 in0.0 mm
05:26 AM 27.3°F-2.6°C 13.1°F-10.5°C 55% 6.0 mph NW9.7 kmh NW -- 29.87 in1011.5 mb 0.00 in0.0 mm 0.00 in0.0 mm 0.00 in0.0 mm
05:25 AM 27.1°F-2.7°C 13.4°F-10.3°C 56% 7.0 mph W11.3 kmh W -- 29.86 in1011.2 mb 0.00 in0.0 mm 0.00 in0.0 mm 0.00 in0.0 mm
05:24 AM 26.7°F-2.9°C 13.8°F-10.1°C 58% 5.0 mph W8.0 kmh W -- 29.86 in1011.2 mb 0.00 in0.0 mm 0.00 in0.0 mm 0.00 in0.0 mm
05:23 AM 26.1°F-3.3°C 13.9°F-10.1°C 60% 5.0 mph W8.0 kmh W -- 29.87 in1011.5 mb 0.00 in0.0 mm 0.00 in0.0 mm 0.00 in0.0 mm
05:22 AM 25.9°F-3.4°C 13.8°F-10.1°C 60% 4.0 mph W6.4 kmh W -- 29.87 in1011.5 mb 0.00 in0.0 mm 0.00 in0.0 mm 0.00 in0.0 mm
05:21 AM 25.4°F-3.7°C 13.6°F-10.2°C 61% 4.0 mph WNW6.4 kmh WNW -- 29.87 in1011.5 mb 0.00 in0.0 mm 0.00 in0.0 mm 0.00 in0.0 mm
05:20 AM 24.6°F-4.1°C 14.4°F-9.8°C 65% 6.0 mph NNW9.7 kmh NNW -- 29.87 in1011.5 mb 0.00 in0.0 mm 0.00 in0.0 mm 0.00 in0.0 mm
05:19 AM 23.8°F-4.6°C 13.9°F-10.1°C 66% 6.0 mph NW9.7 kmh NW -- 29.87 in1011.5 mb 0.00 in0.0 mm 0.00 in0.0 mm 0.00 in0.0 mm
05:18 AM 22.7°F-5.2°C 14.2°F-9.9°C 70% 4.0 mph W6.4 kmh W -- 29.87 in1011.5 mb 0.00 in0.0 mm 0.00 in0.0 mm 0.00 in0.0 mm
05:17 AM 22.3°F-5.4°C 15.2°F-9.3°C 74% 4.0 mph W6.4 kmh W -- 29.86 in1011.2 mb 0.00 in0.0 mm 0.00 in0.0 mm 0.00 in0.0 mm
05:16 AM 22.1°F-5.5°C 15.3°F-9.3°C 75% 3.0 mph NW4.8 kmh NW -- 29.86 in1011.2 mb 0.00 in0.0 mm 0.00 in0.0 mm 0.00 in0.0 mm
05:15 AM 21.9°F-5.6°C 15.4°F-9.2°C 76% 4.0 mph WNW6.4 kmh WNW -- 29.86 in1011.2 mb 0.00 in0.0 mm 0.00 in0.0 mm 0.00 in0.0 mm
05:13 AM 21.9°F-5.6°C 15.4°F-9.2°C 76% 2.0 mph W3.2 kmh W -- 29.86 in1011.2 mb 0.00 in0.0 mm 0.00 in0.0 mm 0.00 in0.0 mm
05:12 AM 21.9°F-5.6°C 16.0°F-8.9°C 78% 2.0 mph W3.2 kmh W -- 29.87 in1011.5 mb 0.00 in0.0 mm 0.00 in0.0 mm 0.00 in0.0 mm
05:11 AM 21.7°F-5.7°C 15.9°F-8.9°C 78% 2.0 mph W3.2 kmh W -- 29.86 in1011.2 mb 0.00 in0.0 mm 0.00 in0.0 mm 0.00 in0.0 mm
05:10 AM 21.7°F-5.7°C 15.9°F-8.9°C 78% 2.0 mph WNW3.2 kmh WNW -- 29.86 in1011.2 mb 0.00 in0.0 mm 0.00 in0.0 mm 0.00 in0.0 mm
05:09 AM 21.7°F-5.7°C 15.9°F-8.9°C 78% 2.0 mph WNW3.2 kmh WNW -- 29.87 in1011.5 mb 0.00 in0.0 mm 0.00 in0.0 mm 0.00 in0.0 mm
05:08 AM 21.7°F-5.7°C 15.9°F-8.9°C 78% 1.0 mph WNW1.6 kmh WNW -- 29.87 in1011.5 mb 0.00 in0.0 mm 0.00 in0.0 mm 0.00 in0.0 mm
05:07 AM 21.7°F-5.7°C 15.9°F-8.9°C 78% 2.0 mph WNW3.2 kmh WNW -- 29.87 in1011.5 mb 0.00 in0.0 mm 0.00 in0.0 mm 0.00 in0.0 mm
05:06 AM 21.7°F-5.7°C 16.2°F-8.8°C 79% 2.0 mph W3.2 kmh W -- 29.86 in1011.2 mb 0.00 in0.0 mm 0.00 in0.0 mm 0.00 in0.0 mm
05:05 AM 21.9°F-5.6°C 16.3°F-8.7°C 79% 2.0 mph NNW3.2 kmh NNW -- 29.86 in1011.2 mb 0.00 in0.0 mm 0.00 in0.0 mm 0.00 in0.0 mm
05:04 AM 21.9°F-5.6°C 16.3°F-8.7°C 79% 1.0 mph WNW1.6 kmh WNW -- 29.86 in1011.2 mb 0.00 in0.0 mm 0.00 in0.0 mm 0.00 in0.0 mm
05:03 AM 21.9°F-5.6°C 16.3°F-8.7°C 79% 2.0 mph WNW3.2 kmh WNW -- 29.86 in1011.2 mb 0.00 in0.0 mm 0.00 in0.0 mm 0.00 in0.0 mm
05:02 AM 21.9°F-5.6°C 16.3°F-8.7°C 79% 2.0 mph NNW3.2 kmh NNW -- 29.86 in1011.2 mb 0.00 in0.0 mm 0.00 in0.0 mm 0.00 in0.0 mm
05:01 AM 22.1°F-5.5°C 16.5°F-8.6°C 79% 2.0 mph NW3.2 kmh NW -- 29.86 in1011.2 mb 0.00 in0.0 mm 0.00 in0.0 mm 0.00 in0.0 mm
05:00 AM 22.1°F-5.5°C 16.5°F-8.6°C 79% 2.0 mph WNW3.2 kmh WNW -- 29.86 in1011.2 mb 0.00 in0.0 mm 0.00 in0.0 mm 0.00 in0.0 mm
04:59 AM 22.3°F-5.4°C 16.7°F-8.5°C 79% 2.0 mph NNW3.2 kmh NNW -- 29.86 in1011.2 mb 0.00 in0.0 mm 0.00 in0.0 mm 0.00 in0.0 mm
04:58 AM 22.5°F-5.3°C 16.9°F-8.4°C 79% 3.0 mph NNW4.8 kmh NNW -- 29.85 in1010.8 mb 0.00 in0.0 mm 0.00 in0.0 mm 0.00 in0.0 mm
04:57 AM 22.5°F-5.3°C 16.9°F-8.4°C 79% 2.0 mph NNW3.2 kmh NNW -- 29.85 in1010.8 mb 0.00 in0.0 mm 0.00 in0.0 mm 0.00 in0.0 mm
04:56 AM 22.5°F-5.3°C 16.9°F-8.4°C 79% 2.0 mph 3.2 kmh -- 29.85 in1010.8 mb 0.00 in0.0 mm 0.00 in0.0 mm 0.00 in0.0 mm
04:55 AM 22.7°F-5.2°C 17.0°F-8.3°C 79% 2.0 mph NNW3.2 kmh NNW -- 29.86 in1011.2 mb 0.00 in0.0 mm 0.00 in0.0 mm 0.00 in0.0 mm
04:54 AM 22.7°F-5.2°C 17.0°F-8.3°C 79% 2.0 mph NNW3.2 kmh NNW -- 29.85 in1010.8 mb 0.00 in0.0 mm 0.00 in0.0 mm 0.00 in0.0 mm
04:53 AM 22.7°F-5.2°C 16.7°F-8.5°C 78% Calm Calm -- 29.86 in1011.2 mb 0.00 in0.0 mm 0.00 in0.0 mm 0.00 in0.0 mm
04:52 AM 23.2°F-4.9°C 17.3°F-8.2°C 78% Calm Calm -- 29.86 in1011.2 mb 0.00 in0.0 mm 0.00 in0.0 mm 0.00 in0.0 mm
04:51 AM 23.2°F-4.9°C 17.3°F-8.2°C 78% Calm Calm -- 29.86 in1011.2 mb 0.00 in0.0 mm 0.00 in0.0 mm 0.00 in0.0 mm
04:50 AM 23.3°F-4.8°C 17.4°F-8.1°C 78% Calm Calm -- 29.86 in1011.2 mb 0.00 in0.0 mm 0.00 in0.0 mm 0.00 in0.0 mm
04:48 AM 23.3°F-4.8°C 17.4°F-8.1°C 78% 1.0 mph NW1.6 kmh NW -- 29.86 in1011.2 mb 0.00 in0.0 mm 0.00 in0.0 mm 0.00 in0.0 mm
04:47 AM 23.3°F-4.8°C 17.4°F-8.1°C 78% 2.0 mph NW3.2 kmh NW -- 29.86 in1011.2 mb 0.00 in0.0 mm 0.00 in0.0 mm 0.00 in0.0 mm
04:46 AM 23.3°F-4.8°C 17.4°F-8.1°C 78% 2.0 mph WNW3.2 kmh WNW -- 29.86 in1011.2 mb 0.00 in0.0 mm 0.00 in0.0 mm 0.00 in0.0 mm
04:44 AM 23.4°F-4.8°C 17.4°F-8.1°C 78% 2.0 mph NW3.2 kmh NW -- 29.86 in1011.2 mb 0.00 in0.0 mm 0.00 in0.0 mm 0.00 in0.0 mm
04:39 AM 23.4°F-4.8°C 17.4°F-8.1°C 78% 3.0 mph NW4.8 kmh NW -- 29.85 in1010.8 mb 0.00 in0.0 mm 0.00 in0.0 mm 0.00 in0.0 mm
04:38 AM 23.4°F-4.8°C 17.4°F-8.1°C 78% 3.0 mph NNW4.8 kmh NNW -- 29.85 in1010.8 mb 0.00 in0.0 mm 0.00 in0.0 mm 0.00 in0.0 mm
04:37 AM 23.4°F-4.8°C 17.4°F-8.1°C 78% 2.0 mph NW3.2 kmh NW -- 29.85 in1010.8 mb 0.00 in0.0 mm 0.00 in0.0 mm 0.00 in0.0 mm
04:35 AM 23.4°F-4.8°C 17.7°F-7.9°C 79% 3.0 mph NW4.8 kmh NW -- 29.85 in1010.8 mb 0.00 in0.0 mm 0.00 in0.0 mm 0.00 in0.0 mm
04:34 AM 23.4°F-4.8°C 17.7°F-7.9°C 79% 3.0 mph WNW4.8 kmh WNW -- 29.85 in1010.8 mb 0.00 in0.0 mm 0.00 in0.0 mm 0.00 in0.0 mm
04:33 AM 23.4°F-4.8°C 17.7°F-7.9°C 79% 4.0 mph WNW6.4 kmh WNW -- 29.85 in1010.8 mb 0.00 in0.0 mm 0.00 in0.0 mm 0.00 in0.0 mm
04:31 AM 23.4°F-4.8°C 17.7°F-7.9°C 79% 3.0 mph WNW4.8 kmh WNW -- 29.85 in1010.8 mb 0.00 in0.0 mm 0.00 in0.0 mm 0.00 in0.0 mm
04:30 AM 23.4°F-4.8°C 17.7°F-7.9°C 79% 3.0 mph NW4.8 kmh NW -- 29.85 in1010.8 mb 0.00 in0.0 mm 0.00 in0.0 mm 0.00 in0.0 mm
04:29 AM 23.4°F-4.8°C 17.7°F-7.9°C 79% 3.0 mph WNW4.8 kmh WNW -- 29.85 in1010.8 mb 0.00 in0.0 mm 0.00 in0.0 mm 0.00 in0.0 mm
04:28 AM 23.4°F-4.8°C 17.7°F-7.9°C 79% 2.0 mph WNW3.2 kmh WNW -- 29.85 in1010.8 mb 0.00 in0.0 mm 0.00 in0.0 mm 0.00 in0.0 mm
04:27 AM 23.4°F-4.8°C 18.0°F-7.8°C 80% 3.0 mph WNW4.8 kmh WNW -- 29.85 in1010.8 mb 0.00 in0.0 mm 0.00 in0.0 mm 0.00 in0.0 mm
04:26 AM 23.4°F-4.8°C 18.0°F-7.8°C 80% 3.0 mph W4.8 kmh W -- 29.85 in1010.8 mb 0.00 in0.0 mm 0.00 in0.0 mm 0.00 in0.0 mm
04:25 AM 23.4°F-4.8°C 18.0°F-7.8°C 80% 3.0 mph WNW4.8 kmh WNW -- 29.85 in1010.8 mb 0.00 in0.0 mm 0.00 in0.0 mm 0.00 in0.0 mm
04:24 AM 23.3°F-4.8°C 18.0°F-7.8°C 80% 4.0 mph WNW6.4 kmh WNW -- 29.85 in1010.8 mb 0.00 in0.0 mm 0.00 in0.0 mm 0.00 in0.0 mm
04:22 AM 23.3°F-4.8°C 18.0°F-7.8°C 80% 2.0 mph WNW3.2 kmh WNW -- 29.85 in1010.8 mb 0.00 in0.0 mm 0.00 in0.0 mm 0.00 in0.0 mm
04:21 AM 23.3°F-4.8°C 18.0°F-7.8°C 80% 3.0 mph WNW4.8 kmh WNW -- 29.85 in1010.8 mb 0.00 in0.0 mm 0.00 in0.0 mm 0.00 in0.0 mm
04:20 AM 23.3°F-4.8°C 18.0°F-7.8°C 80% 3.0 mph NW4.8 kmh NW -- 29.85 in1010.8 mb 0.00 in0.0 mm 0.00 in0.0 mm 0.00 in0.0 mm
04:19 AM 23.3°F-4.8°C 18.0°F-7.8°C 80% 3.0 mph WNW4.8 kmh WNW -- 29.85 in1010.8 mb 0.00 in0.0 mm 0.00 in0.0 mm 0.00 in0.0 mm
04:18 AM 23.3°F-4.8°C 18.0°F-7.8°C 80% 2.0 mph W3.2 kmh W -- 29.85 in1010.8 mb 0.00 in0.0 mm 0.00 in0.0 mm 0.00 in0.0 mm
04:17 AM 23.3°F-4.8°C 18.0°F-7.8°C 80% 3.0 mph W4.8 kmh W -- 29.85 in1010.8 mb 0.00 in0.0 mm 0.00 in0.0 mm 0.00 in0.0 mm
04:16 AM 23.3°F-4.8°C 18.0°F-7.8°C 80% 3.0 mph WNW4.8 kmh WNW -- 29.85 in1010.8 mb 0.00 in0.0 mm 0.00 in0.0 mm 0.00 in0.0 mm
04:15 AM 23.3°F-4.8°C 18.0°F-7.8°C 80% Calm Calm -- 29.85 in1010.8 mb 0.00 in0.0 mm 0.00 in0.0 mm 0.00 in0.0 mm
04:14 AM 23.4°F-4.8°C 17.7°F-7.9°C 79% Calm Calm -- 29.85 in1010.8 mb 0.00 in0.0 mm 0.00 in0.0 mm 0.00 in0.0 mm
04:13 AM 23.7°F-4.6°C 18.1°F-7.7°C 79% Calm Calm -- 29.85 in1010.8 mb 0.00 in0.0 mm 0.00 in0.0 mm 0.00 in0.0 mm
04:11 AM 23.7°F-4.6°C 18.1°F-7.7°C 79% Calm Calm -- 29.85 in1010.8 mb 0.00 in0.0 mm 0.00 in0.0 mm 0.00 in0.0 mm
04:10 AM 23.8°F-4.6°C 18.1°F-7.7°C 79% Calm Calm -- 29.85 in1010.8 mb 0.00 in0.0 mm 0.00 in0.0 mm 0.00 in0.0 mm
04:09 AM 24.1°F-4.4°C 18.4°F-7.6°C 79% Calm Calm -- 29.85 in1010.8 mb 0.00 in0.0 mm 0.00 in0.0 mm 0.00 in0.0 mm
04:08 AM 24.1°F-4.4°C 18.4°F-7.6°C 79% Calm Calm -- 29.85 in1010.8 mb 0.00 in0.0 mm 0.00 in0.0 mm 0.00 in0.0 mm
04:07 AM 24.1°F-4.4°C 18.7°F-7.4°C 80% 1.0 mph NNW1.6 kmh NNW -- 29.85 in1010.8 mb 0.00 in0.0 mm 0.00 in0.0 mm 0.00 in0.0 mm
04:06 AM 24.1°F-4.4°C 18.7°F-7.4°C 80% 2.0 mph NNW3.2 kmh NNW -- 29.85 in1010.8 mb 0.00 in0.0 mm 0.00 in0.0 mm 0.00 in0.0 mm
04:05 AM 24.1°F-4.4°C 18.7°F-7.4°C 80% 1.0 mph WNW1.6 kmh WNW -- 29.85 in1010.8 mb 0.00 in0.0 mm 0.00 in0.0 mm 0.00 in0.0 mm
04:04 AM 24.1°F-4.4°C 18.7°F-7.4°C 80% 2.0 mph NW3.2 kmh NW -- 29.85 in1010.8 mb 0.00 in0.0 mm 0.00 in0.0 mm 0.00 in0.0 mm
04:03 AM 24.1°F-4.4°C 18.7°F-7.4°C 80% 2.0 mph WNW3.2 kmh WNW -- 29.85 in1010.8 mb 0.00 in0.0 mm 0.00 in0.0 mm 0.00 in0.0 mm
04:02 AM 24.1°F-4.4°C 18.7°F-7.4°C 80% 2.0 mph W3.2 kmh W -- 29.85 in1010.8 mb 0.00 in0.0 mm 0.00 in0.0 mm 0.00 in0.0 mm
04:00 AM 23.8°F-4.6°C 18.4°F-7.6°C 80% 2.0 mph W3.2 kmh W -- 29.85 in1010.8 mb 0.00 in0.0 mm 0.00 in0.0 mm 0.00 in0.0 mm
03:59 AM 23.8°F-4.6°C 18.4°F-7.6°C 80% 3.0 mph W4.8 kmh W -- 29.85 in1010.8 mb 0.00 in0.0 mm 0.00 in0.0 mm 0.00 in0.0 mm
03:56 AM 23.7°F-4.6°C 18.4°F-7.6°C 80% 2.0 mph W3.2 kmh W -- 29.85 in1010.8 mb 0.00 in0.0 mm 0.00 in0.0 mm 0.00 in0.0 mm
03:55 AM 23.4°F-4.8°C 18.0°F-7.8°C 80% 2.0 mph W3.2 kmh W -- 29.85 in1010.8 mb 0.00 in0.0 mm 0.00 in0.0 mm 0.00 in0.0 mm
03:54 AM 23.4°F-4.8°C 18.0°F-7.8°C 80% 2.0 mph WNW3.2 kmh WNW -- 29.85 in1010.8 mb 0.00 in0.0 mm 0.00 in0.0 mm 0.00 in0.0 mm
03:53 AM 23.4°F-4.8°C 18.0°F-7.8°C 80% 2.0 mph WNW3.2 kmh WNW -- 29.86 in1011.2 mb 0.00 in0.0 mm 0.00 in0.0 mm 0.00 in0.0 mm
03:52 AM 23.4°F-4.8°C 17.7°F-7.9°C 79% 2.0 mph NW3.2 kmh NW -- 29.85 in1010.8 mb 0.00 in0.0 mm 0.00 in0.0 mm 0.00 in0.0 mm
03:51 AM 23.7°F-4.6°C 18.1°F-7.7°C 79% 2.0 mph NW3.2 kmh NW -- 29.86 in1011.2 mb 0.00 in0.0 mm 0.00 in0.0 mm 0.00 in0.0 mm
03:50 AM 23.8°F-4.6°C 18.1°F-7.7°C 79% 2.0 mph NNW3.2 kmh NNW -- 29.85 in1010.8 mb 0.00 in0.0 mm 0.00 in0.0 mm 0.00 in0.0 mm
03:49 AM 23.8°F-4.6°C 18.1°F-7.7°C 79% 2.0 mph NW3.2 kmh NW -- 29.85 in1010.8 mb 0.00 in0.0 mm 0.00 in0.0 mm 0.00 in0.0 mm
03:48 AM 23.8°F-4.6°C 18.1°F-7.7°C 79% 1.0 mph NW1.6 kmh NW -- 29.85 in1010.8 mb 0.00 in0.0 mm 0.00 in0.0 mm 0.00 in0.0 mm
03:47 AM 23.8°F-4.6°C 18.1°F-7.7°C 79% 2.0 mph WNW3.2 kmh WNW -- 29.85 in1010.8 mb 0.00 in0.0 mm 0.00 in0.0 mm 0.00 in0.0 mm
03:46 AM 23.8°F-4.6°C 18.1°F-7.7°C 79% 2.0 mph WNW3.2 kmh WNW -- 29.86 in1011.2 mb 0.00 in0.0 mm 0.00 in0.0 mm 0.00 in0.0 mm
03:45 AM 24.1°F-4.4°C 18.4°F-7.6°C 79% 2.0 mph NW3.2 kmh NW -- 29.85 in1010.8 mb 0.00 in0.0 mm 0.00 in0.0 mm 0.00 in0.0 mm
03:44 AM 24.1°F-4.4°C 18.4°F-7.6°C 79% 2.0 mph WNW3.2 kmh WNW -- 29.86 in1011.2 mb 0.00 in0.0 mm 0.00 in0.0 mm 0.00 in0.0 mm
03:42 AM 24.1°F-4.4°C 18.4°F-7.6°C 79% 1.0 mph WNW1.6 kmh WNW -- 29.85 in1010.8 mb 0.00 in0.0 mm 0.00 in0.0 mm 0.00 in0.0 mm
03:41 AM 24.2°F-4.3°C 18.6°F-7.4°C 79% 1.0 mph NW1.6 kmh NW -- 29.85 in1010.8 mb 0.00 in0.0 mm 0.00 in0.0 mm 0.00 in0.0 mm
03:40 AM 24.2°F-4.3°C 18.3°F-7.6°C 78% 2.0 mph WNW3.2 kmh WNW -- 29.85 in1010.8 mb 0.00 in0.0 mm 0.00 in0.0 mm 0.00 in0.0 mm
03:39 AM 24.2°F-4.3°C 18.3°F-7.6°C 78% 1.0 mph WNW1.6 kmh WNW -- 29.85 in1010.8 mb 0.00 in0.0 mm 0.00 in0.0 mm 0.00 in0.0 mm
03:38 AM 24.2°F-4.3°C 18.3°F-7.6°C 78% 1.0 mph W1.6 kmh W -- 29.85 in1010.8 mb 0.00 in0.0 mm 0.00 in0.0 mm 0.00 in0.0 mm
03:37 AM 24.2°F-4.3°C 18.3°F-7.6°C 78% 2.0 mph WNW3.2 kmh WNW -- 29.85 in1010.8 mb 0.00 in0.0 mm 0.00 in0.0 mm 0.00 in0.0 mm
03:36 AM 24.4°F-4.2°C 18.5°F-7.5°C 78% 1.0 mph W1.6 kmh W -- 29.85 in1010.8 mb 0.00 in0.0 mm 0.00 in0.0 mm 0.00 in0.0 mm
03:35 AM 24.4°F-4.2°C 18.5°F-7.5°C 78% 2.0 mph W3.2 kmh W -- 29.85 in1010.8 mb 0.00 in0.0 mm 0.00 in0.0 mm 0.00 in0.0 mm
03:34 AM 24.4°F-4.2°C 18.5°F-7.5°C 78% Calm Calm -- 29.85 in1010.8 mb 0.00 in0.0 mm 0.00 in0.0 mm 0.00 in0.0 mm
03:33 AM 24.4°F-4.2°C 18.5°F-7.5°C 78% Calm Calm -- 29.85 in1010.8 mb 0.00 in0.0 mm 0.00 in0.0 mm 0.00 in0.0 mm
03:32 AM 24.4°F-4.2°C 17.9°F-7.8°C 76% 1.0 mph WSW1.6 kmh WSW -- 29.85 in1010.8 mb 0.00 in0.0 mm 0.00 in0.0 mm 0.00 in0.0 mm
03:30 AM 24.4°F-4.2°C 17.9°F-7.8°C 76% 2.0 mph W3.2 kmh W -- 29.85 in1010.8 mb 0.00 in0.0 mm 0.00 in0.0 mm 0.00 in0.0 mm
03:29 AM 24.4°F-4.2°C 17.9°F-7.8°C 76% 2.0 mph WNW3.2 kmh WNW -- 29.86 in1011.2 mb 0.00 in0.0 mm 0.00 in0.0 mm 0.00 in0.0 mm
03:27 AM 24.4°F-4.2°C 17.9°F-7.8°C 76% 2.0 mph WNW3.2 kmh WNW -- 29.85 in1010.8 mb 0.00 in0.0 mm 0.00 in0.0 mm 0.00 in0.0 mm
03:26 AM 24.4°F-4.2°C 17.9°F-7.8°C 76% Calm Calm -- 29.86 in1011.2 mb 0.00 in0.0 mm 0.00 in0.0 mm 0.00 in0.0 mm
03:25 AM 24.4°F-4.2°C 17.9°F-7.8°C 76% 2.0 mph W3.2 kmh W -- 29.86 in1011.2 mb 0.00 in0.0 mm 0.00 in0.0 mm 0.00 in0.0 mm
03:24 AM 24.4°F-4.2°C 17.9°F-7.8°C 76% 3.0 mph WSW4.8 kmh WSW -- 29.86 in1011.2 mb 0.00 in0.0 mm 0.00 in0.0 mm 0.00 in0.0 mm
03:23 AM 24.4°F-4.2°C 17.9°F-7.8°C 76% 2.0 mph W3.2 kmh W -- 29.86 in1011.2 mb 0.00 in0.0 mm 0.00 in0.0 mm 0.00 in0.0 mm
03:22 AM 24.4°F-4.2°C 17.6°F-8.0°C 75% 2.0 mph W3.2 kmh W -- 29.85 in1010.8 mb 0.00 in0.0 mm 0.00 in0.0 mm 0.00 in0.0 mm
03:21 AM 24.4°F-4.2°C 17.6°F-8.0°C 75% 2.0 mph W3.2 kmh W -- 29.86 in1011.2 mb 0.00 in0.0 mm 0.00 in0.0 mm 0.00 in0.0 mm
03:20 AM 24.6°F-4.1°C 17.7°F-7.9°C 75% 3.0 mph WNW4.8 kmh WNW -- 29.85 in1010.8 mb 0.00 in0.0 mm 0.00 in0.0 mm 0.00 in0.0 mm
03:19 AM 24.6°F-4.1°C 17.7°F-7.9°C 75% 3.0 mph NW4.8 kmh NW -- 29.85 in1010.8 mb 0.00 in0.0 mm 0.00 in0.0 mm 0.00 in0.0 mm
03:15 AM 24.6°F-4.1°C 17.7°F-7.9°C 75% 2.0 mph NW3.2 kmh NW -- 29.86 in1011.2 mb 0.00 in0.0 mm 0.00 in0.0 mm 0.00 in0.0 mm
03:14 AM 24.6°F-4.1°C 17.7°F-7.9°C 75% 3.0 mph W4.8 kmh W -- 29.85 in1010.8 mb 0.00 in0.0 mm 0.00 in0.0 mm 0.00 in0.0 mm
03:13 AM 24.6°F-4.1°C 17.7°F-7.9°C 75% 2.0 mph WNW3.2 kmh WNW -- 29.85 in1010.8 mb 0.00 in0.0 mm 0.00 in0.0 mm 0.00 in0.0 mm
03:12 AM 24.4°F-4.2°C 17.6°F-8.0°C 75% 3.0 mph WNW4.8 kmh WNW -- 29.86 in1011.2 mb 0.00 in0.0 mm 0.00 in0.0 mm 0.00 in0.0 mm
03:11 AM 24.4°F-4.2°C 17.6°F-8.0°C 75% 2.0 mph W3.2 kmh W -- 29.86 in1011.2 mb 0.00 in0.0 mm 0.00 in0.0 mm 0.00 in0.0 mm
03:10 AM 24.4°F-4.2°C 17.6°F-8.0°C 75% 1.0 mph W1.6 kmh W -- 29.86 in1011.2 mb 0.00 in0.0 mm 0.00 in0.0 mm 0.00 in0.0 mm
03:09 AM 24.4°F-4.2°C 17.6°F-8.0°C 75% 2.0 mph W3.2 kmh W -- 29.86 in1011.2 mb 0.00 in0.0 mm 0.00 in0.0 mm 0.00 in0.0 mm
03:08 AM 24.4°F-4.2°C 17.6°F-8.0°C 75% 2.0 mph NW3.2 kmh NW -- 29.86 in1011.2 mb 0.00 in0.0 mm 0.00 in0.0 mm 0.00 in0.0 mm
03:07 AM 24.4°F-4.2°C 17.6°F-8.0°C 75% 2.0 mph W3.2 kmh W -- 29.85 in1010.8 mb 0.00 in0.0 mm 0.00 in0.0 mm 0.00 in0.0 mm
03:06 AM 24.4°F-4.2°C 17.6°F-8.0°C 75% 2.0 mph WNW3.2 kmh WNW -- 29.86 in1011.2 mb 0.00 in0.0 mm 0.00 in0.0 mm 0.00 in0.0 mm
03:04 AM 24.4°F-4.2°C 17.6°F-8.0°C 75% 2.0 mph W3.2 kmh W -- 29.85 in1010.8 mb 0.00 in0.0 mm 0.00 in0.0 mm 0.00 in0.0 mm
03:03 AM 24.4°F-4.2°C 17.6°F-8.0°C 75% 3.0 mph W4.8 kmh W -- 29.85 in1010.8 mb 0.00 in0.0 mm 0.00 in0.0 mm 0.00 in0.0 mm
03:02 AM 24.4°F-4.2°C 17.6°F-8.0°C 75% 1.0 mph W1.6 kmh W -- 29.85 in1010.8 mb 0.00 in0.0 mm 0.00 in0.0 mm 0.00 in0.0 mm
03:01 AM 24.4°F-4.2°C 17.6°F-8.0°C 75% 2.0 mph WNW3.2 kmh WNW -- 29.85 in1010.8 mb 0.00 in0.0 mm 0.00 in0.0 mm 0.00 in0.0 mm
03:00 AM 24.4°F-4.2°C 17.6°F-8.0°C 75% Calm Calm -- 29.85 in1010.8 mb 0.00 in0.0 mm 0.00 in0.0 mm 0.00 in0.0 mm
02:59 AM 24.6°F-4.1°C 17.7°F-7.9°C 75% Calm Calm -- 29.85 in1010.8 mb 0.00 in0.0 mm 0.00 in0.0 mm 0.00 in0.0 mm
02:57 AM 24.8°F-4.0°C 17.9°F-7.8°C 75% Calm Calm -- 29.85 in1010.8 mb 0.00 in0.0 mm 0.00 in0.0 mm 0.00 in0.0 mm
02:56 AM 24.8°F-4.0°C 17.9°F-7.8°C 75% 1.0 mph W1.6 kmh W -- 29.86 in1011.2 mb 0.00 in0.0 mm 0.00 in0.0 mm 0.00 in0.0 mm
02:55 AM 24.8°F-4.0°C 17.9°F-7.8°C 75% 1.0 mph WNW1.6 kmh WNW -- 29.86 in1011.2 mb 0.00 in0.0 mm 0.00 in0.0 mm 0.00 in0.0 mm
02:53 AM 24.8°F-4.0°C 17.9°F-7.8°C 75% 2.0 mph WNW3.2 kmh WNW -- 29.86 in1011.2 mb 0.00 in0.0 mm 0.00 in0.0 mm 0.00 in0.0 mm
02:52 AM 24.8°F-4.0°C 17.9°F-7.8°C 75% 2.0 mph NW3.2 kmh NW -- 29.86 in1011.2 mb 0.00 in0.0 mm 0.00 in0.0 mm 0.00 in0.0 mm
02:51 AM 24.8°F-4.0°C 17.9°F-7.8°C 75% 3.0 mph NW4.8 kmh NW -- 29.86 in1011.2 mb 0.00 in0.0 mm 0.00 in0.0 mm 0.00 in0.0 mm
02:50 AM 24.8°F-4.0°C 17.6°F-8.0°C 74% 1.0 mph NW1.6 kmh NW -- 29.86 in1011.2 mb 0.00 in0.0 mm 0.00 in0.0 mm 0.00 in0.0 mm
02:49 AM 25.0°F-3.9°C 17.8°F-7.9°C 74% Calm Calm -- 29.86 in1011.2 mb 0.00 in0.0 mm 0.00 in0.0 mm 0.00 in0.0 mm
02:48 AM 25.1°F-3.8°C 17.9°F-7.8°C 74% Calm Calm -- 29.86 in1011.2 mb 0.00 in0.0 mm 0.00 in0.0 mm 0.00 in0.0 mm
02:47 AM 25.1°F-3.8°C 17.6°F-8.0°C 73% Calm Calm -- 29.86 in1011.2 mb 0.00 in0.0 mm 0.00 in0.0 mm 0.00 in0.0 mm
02:46 AM 25.2°F-3.8°C 17.6°F-8.0°C 73% Calm Calm -- 29.85 in1010.8 mb 0.00 in0.0 mm 0.00 in0.0 mm 0.00 in0.0 mm
02:45 AM 25.4°F-3.7°C 17.8°F-7.9°C 73% Calm Calm -- 29.85 in1010.8 mb 0.00 in0.0 mm 0.00 in0.0 mm 0.00 in0.0 mm
02:44 AM 25.4°F-3.7°C 17.1°F-8.3°C 71% Calm Calm -- 29.85 in1010.8 mb 0.00 in0.0 mm 0.00 in0.0 mm 0.00 in0.0 mm
02:43 AM 25.7°F-3.5°C 17.5°F-8.1°C 71% Calm Calm -- 29.85 in1010.8 mb 0.00 in0.0 mm 0.00 in0.0 mm 0.00 in0.0 mm
02:42 AM 25.9°F-3.4°C 17.7°F-7.9°C 71% Calm Calm -- 29.86 in1011.2 mb 0.00 in0.0 mm 0.00 in0.0 mm 0.00 in0.0 mm
02:41 AM 26.1°F-3.3°C 17.8°F-7.9°C 71% Calm Calm -- 29.86 in1011.2 mb 0.00 in0.0 mm 0.00 in0.0 mm 0.00 in0.0 mm
02:40 AM 26.1°F-3.3°C 17.8°F-7.9°C 71% Calm Calm -- 29.86 in1011.2 mb 0.00 in0.0 mm 0.00 in0.0 mm 0.00 in0.0 mm
02:39 AM 26.1°F-3.3°C 17.8°F-7.9°C 71% Calm Calm -- 29.86 in1011.2 mb 0.00 in0.0 mm 0.00 in0.0 mm 0.00 in0.0 mm
02:38 AM 26.1°F-3.3°C 17.8°F-7.9°C 71% Calm Calm -- 29.86 in1011.2 mb 0.00 in0.0 mm 0.00 in0.0 mm 0.00 in0.0 mm
02:37 AM 26.1°F-3.3°C 17.8°F-7.9°C 71% Calm Calm -- 29.86 in1011.2 mb 0.00 in0.0 mm 0.00 in0.0 mm 0.00 in0.0 mm
02:35 AM 26.1°F-3.3°C 17.8°F-7.9°C 71% Calm Calm -- 29.87 in1011.5 mb 0.00 in0.0 mm 0.00 in0.0 mm 0.00 in0.0 mm
02:34 AM 26.1°F-3.3°C 17.8°F-7.9°C 71% 1.0 mph W1.6 kmh W -- 29.87 in1011.5 mb 0.00 in0.0 mm 0.00 in0.0 mm 0.00 in0.0 mm
02:33 AM 26.1°F-3.3°C 17.8°F-7.9°C 71% 2.0 mph NW3.2 kmh NW -- 29.86 in1011.2 mb 0.00 in0.0 mm 0.00 in0.0 mm 0.00 in0.0 mm
02:32 AM 26.1°F-3.3°C 17.8°F-7.9°C 71% 2.0 mph WNW3.2 kmh WNW -- 29.87 in1011.5 mb 0.00 in0.0 mm 0.00 in0.0 mm 0.00 in0.0 mm
02:31 AM 25.9°F-3.4°C 17.7°F-7.9°C 71% 3.0 mph W4.8 kmh W -- 29.86 in1011.2 mb 0.00 in0.0 mm 0.00 in0.0 mm 0.00 in0.0 mm
02:30 AM 25.9°F-3.4°C 18.3°F-7.6°C 73% 3.0 mph W4.8 kmh W -- 29.87 in1011.5 mb 0.00 in0.0 mm 0.00 in0.0 mm 0.00 in0.0 mm
02:29 AM 25.9°F-3.4°C 18.3°F-7.6°C 73% 3.0 mph W4.8 kmh W -- 29.86 in1011.2 mb 0.00 in0.0 mm 0.00 in0.0 mm 0.00 in0.0 mm
02:28 AM 25.9°F-3.4°C 18.3°F-7.6°C 73% Calm Calm -- 29.87 in1011.5 mb 0.00 in0.0 mm 0.00 in0.0 mm 0.00 in0.0 mm
02:27 AM 25.9°F-3.4°C 18.3°F-7.6°C 73% Calm Calm -- 29.87 in1011.5 mb 0.00 in0.0 mm 0.00 in0.0 mm 0.00 in0.0 mm
02:26 AM 25.9°F-3.4°C 18.3°F-7.6°C 73% 1.0 mph SW1.6 kmh SW -- 29.87 in1011.5 mb 0.00 in0.0 mm 0.00 in0.0 mm 0.00 in0.0 mm
02:25 AM 25.9°F-3.4°C 18.3°F-7.6°C 73% Calm Calm -- 29.87 in1011.5 mb 0.00 in0.0 mm 0.00 in0.0 mm 0.00 in0.0 mm
02:24 AM 25.9°F-3.4°C 18.3°F-7.6°C 73% Calm Calm -- 29.87 in1011.5 mb 0.00 in0.0 mm 0.00 in0.0 mm 0.00 in0.0 mm
02:23 AM 25.9°F-3.4°C 18.3°F-7.6°C 73% 2.0 mph W3.2 kmh W -- 29.87 in1011.5 mb 0.00 in0.0 mm 0.00 in0.0 mm 0.00 in0.0 mm
02:22 AM 25.7°F-3.5°C 18.1°F-7.7°C 73% 2.0 mph W3.2 kmh W -- 29.87 in1011.5 mb 0.00 in0.0 mm 0.00 in0.0 mm 0.00 in0.0 mm
02:21 AM 25.7°F-3.5°C 18.5°F-7.5°C 74% 3.0 mph W4.8 kmh W -- 29.87 in1011.5 mb 0.00 in0.0 mm 0.00 in0.0 mm 0.00 in0.0 mm
02:20 AM 25.7°F-3.5°C 18.5°F-7.5°C 74% 4.0 mph W6.4 kmh W -- 29.88 in1011.9 mb 0.00 in0.0 mm 0.00 in0.0 mm 0.00 in0.0 mm
02:19 AM 25.9°F-3.4°C 18.6°F-7.4°C 74% 3.0 mph WSW4.8 kmh WSW -- 29.88 in1011.9 mb 0.00 in0.0 mm 0.00 in0.0 mm 0.00 in0.0 mm
02:18 AM 25.9°F-3.4°C 18.6°F-7.4°C 74% 1.0 mph SW1.6 kmh SW -- 29.87 in1011.5 mb 0.00 in0.0 mm 0.00 in0.0 mm 0.00 in0.0 mm
02:17 AM 26.2°F-3.2°C 18.7°F-7.4°C 73% 4.0 mph W6.4 kmh W -- 29.88 in1011.9 mb 0.00 in0.0 mm 0.00 in0.0 mm 0.00 in0.0 mm
02:16 AM 26.6°F-3.0°C 19.0°F-7.2°C 73% 2.0 mph W3.2 kmh W -- 29.87 in1011.5 mb 0.00 in0.0 mm 0.00 in0.0 mm 0.00 in0.0 mm
02:15 AM 26.6°F-3.0°C 19.0°F-7.2°C 73% 2.0 mph SW3.2 kmh SW -- 29.87 in1011.5 mb 0.00 in0.0 mm 0.00 in0.0 mm 0.00 in0.0 mm
02:14 AM 26.1°F-3.3°C 19.1°F-7.2°C 75% 3.0 mph SSW4.8 kmh SSW -- 29.87 in1011.5 mb 0.00 in0.0 mm 0.00 in0.0 mm 0.00 in0.0 mm
02:13 AM 25.9°F-3.4°C 19.0°F-7.2°C 75% Calm Calm -- 29.87 in1011.5 mb 0.00 in0.0 mm 0.00 in0.0 mm 0.00 in0.0 mm
02:10 AM 25.9°F-3.4°C 18.6°F-7.4°C 74% Calm Calm -- 29.88 in1011.9 mb 0.00 in0.0 mm 0.00 in0.0 mm 0.00 in0.0 mm
02:09 AM 25.9°F-3.4°C 18.6°F-7.4°C 74% Calm Calm -- 29.88 in1011.9 mb 0.00 in0.0 mm 0.00 in0.0 mm 0.00 in0.0 mm
02:08 AM 25.9°F-3.4°C 18.6°F-7.4°C 74% Calm Calm -- 29.88 in1011.9 mb 0.00 in0.0 mm 0.00 in0.0 mm 0.00 in0.0 mm
02:07 AM 25.9°F-3.4°C 18.6°F-7.4°C 74% 1.0 mph W1.6 kmh W -- 29.88 in1011.9 mb 0.00 in0.0 mm 0.00 in0.0 mm 0.00 in0.0 mm
02:06 AM 25.9°F-3.4°C 18.6°F-7.4°C 74% 1.0 mph WNW1.6 kmh WNW -- 29.88 in1011.9 mb 0.00 in0.0 mm 0.00 in0.0 mm 0.00 in0.0 mm
02:05 AM 26.1°F-3.3°C 18.8°F-7.3°C 74% 2.0 mph WNW3.2 kmh WNW -- 29.87 in1011.5 mb 0.00 in0.0 mm 0.00 in0.0 mm 0.00 in0.0 mm
02:04 AM 26.1°F-3.3°C 18.8°F-7.3°C 74% 2.0 mph NW3.2 kmh NW -- 29.88 in1011.9 mb 0.00 in0.0 mm 0.00 in0.0 mm 0.00 in0.0 mm
02:03 AM 26.3°F-3.2°C 18.7°F-7.4°C 73% 2.0 mph SSW3.2 kmh SSW -- 29.87 in1011.5 mb 0.00 in0.0 mm 0.00 in0.0 mm 0.00 in0.0 mm
02:02 AM 26.3°F-3.2°C 18.7°F-7.4°C 73% Calm Calm -- 29.87 in1011.5 mb 0.00 in0.0 mm 0.00 in0.0 mm 0.00 in0.0 mm
02:01 AM 26.3°F-3.2°C 18.7°F-7.4°C 73% Calm Calm -- 29.87 in1011.5 mb 0.00 in0.0 mm 0.00 in0.0 mm 0.00 in0.0 mm
02:00 AM 26.3°F-3.2°C 18.7°F-7.4°C 73% Calm Calm -- 29.88 in1011.9 mb 0.00 in0.0 mm 0.00 in0.0 mm 0.00 in0.0 mm
01:59 AM 26.6°F-3.0°C 19.0°F-7.2°C 73% 1.0 mph W1.6 kmh W -- 29.87 in1011.5 mb 0.00 in0.0 mm 0.00 in0.0 mm 0.00 in0.0 mm
01:58 AM 26.6°F-3.0°C 19.0°F-7.2°C 73% 1.0 mph NW1.6 kmh NW -- 29.87 in1011.5 mb 0.00 in0.0 mm 0.00 in0.0 mm 0.00 in0.0 mm
01:57 AM 26.6°F-3.0°C 19.0°F-7.2°C 73% 1.0 mph NNW1.6 kmh NNW -- 29.87 in1011.5 mb 0.00 in0.0 mm 0.00 in0.0 mm 0.00 in0.0 mm
01:56 AM 26.6°F-3.0°C 19.0°F-7.2°C 73% 2.0 mph WNW3.2 kmh WNW -- 29.88 in1011.9 mb 0.00 in0.0 mm 0.00 in0.0 mm 0.00 in0.0 mm
01:55 AM 26.6°F-3.0°C 19.0°F-7.2°C 73% 2.0 mph W3.2 kmh W -- 29.88 in1011.9 mb 0.00 in0.0 mm 0.00 in0.0 mm 0.00 in0.0 mm
01:54 AM 26.6°F-3.0°C 19.0°F-7.2°C 73% 2.0 mph WNW3.2 kmh WNW -- 29.87 in1011.5 mb 0.00 in0.0 mm 0.00 in0.0 mm 0.00 in0.0 mm
01:53 AM 26.6°F-3.0°C 19.0°F-7.2°C 73% 3.0 mph WNW4.8 kmh WNW -- 29.88 in1011.9 mb 0.00 in0.0 mm 0.00 in0.0 mm 0.00 in0.0 mm
01:52 AM 26.6°F-3.0°C 19.0°F-7.2°C 73% 3.0 mph W4.8 kmh W -- 29.88 in1011.9 mb 0.00 in0.0 mm 0.00 in0.0 mm 0.00 in0.0 mm
01:51 AM 26.7°F-2.9°C 19.2°F-7.1°C 73% 2.0 mph W3.2 kmh W -- 29.88 in1011.9 mb 0.00 in0.0 mm 0.00 in0.0 mm 0.00 in0.0 mm
01:50 AM 26.7°F-2.9°C 19.2°F-7.1°C 73% 3.0 mph NW4.8 kmh NW -- 29.88 in1011.9 mb 0.00 in0.0 mm 0.00 in0.0 mm 0.00 in0.0 mm
01:49 AM 26.7°F-2.9°C 19.2°F-7.1°C 73% 2.0 mph WNW3.2 kmh WNW -- 29.88 in1011.9 mb 0.00 in0.0 mm 0.00 in0.0 mm 0.00 in0.0 mm
01:48 AM 26.7°F-2.9°C 19.2°F-7.1°C 73% 3.0 mph WNW4.8 kmh WNW -- 29.88 in1011.9 mb 0.00 in0.0 mm 0.00 in0.0 mm 0.00 in0.0 mm
01:46 AM 26.7°F-2.9°C 19.2°F-7.1°C 73% 3.0 mph W4.8 kmh W -- 29.88 in1011.9 mb 0.00 in0.0 mm 0.00 in0.0 mm 0.00 in0.0 mm
01:45 AM 26.7°F-2.9°C 19.2°F-7.1°C 73% 3.0 mph WSW4.8 kmh WSW -- 29.88 in1011.9 mb 0.00 in0.0 mm 0.00 in0.0 mm 0.00 in0.0 mm
01:44 AM 26.7°F-2.9°C 19.2°F-7.1°C 73% 3.0 mph W4.8 kmh W -- 29.88 in1011.9 mb 0.00 in0.0 mm 0.00 in0.0 mm 0.00 in0.0 mm
01:43 AM 27.0°F-2.8°C 19.4°F-7.0°C 73% Calm Calm -- 29.88 in1011.9 mb 0.00 in0.0 mm 0.00 in0.0 mm 0.00 in0.0 mm
01:42 AM 27.0°F-2.8°C 19.4°F-7.0°C 73% 2.0 mph NW3.2 kmh NW -- 29.88 in1011.9 mb 0.00 in0.0 mm 0.00 in0.0 mm 0.00 in0.0 mm
01:41 AM 27.0°F-2.8°C 19.4°F-7.0°C 73% 3.0 mph WNW4.8 kmh WNW -- 29.88 in1011.9 mb 0.00 in0.0 mm 0.00 in0.0 mm 0.00 in0.0 mm
01:40 AM 27.1°F-2.7°C 19.5°F-6.9°C 73% 4.0 mph WSW6.4 kmh WSW -- 29.88 in1011.9 mb 0.00 in0.0 mm 0.00 in0.0 mm 0.00 in0.0 mm
01:39 AM 27.1°F-2.7°C 19.5°F-6.9°C 73% 4.0 mph W6.4 kmh W -- 29.89 in1012.2 mb 0.00 in0.0 mm 0.00 in0.0 mm 0.00 in0.0 mm
01:38 AM 27.1°F-2.7°C 19.5°F-6.9°C 73% 2.0 mph W3.2 kmh W -- 29.89 in1012.2 mb 0.00 in0.0 mm 0.00 in0.0 mm 0.00 in0.0 mm
01:37 AM 27.1°F-2.7°C 19.5°F-6.9°C 73% 3.0 mph W4.8 kmh W -- 29.89 in1012.2 mb 0.00 in0.0 mm 0.00 in0.0 mm 0.00 in0.0 mm
01:36 AM 27.1°F-2.7°C 19.5°F-6.9°C 73% 3.0 mph W4.8 kmh W -- 29.88 in1011.9 mb 0.00 in0.0 mm 0.00 in0.0 mm 0.00 in0.0 mm
01:35 AM 27.1°F-2.7°C 19.5°F-6.9°C 73% 4.0 mph W6.4 kmh W -- 29.89 in1012.2 mb 0.00 in0.0 mm 0.00 in0.0 mm 0.00 in0.0 mm
01:34 AM 27.1°F-2.7°C 19.5°F-6.9°C 73% 3.0 mph W4.8 kmh W -- 29.89 in1012.2 mb 0.00 in0.0 mm 0.00 in0.0 mm 0.00 in0.0 mm
01:32 AM 27.1°F-2.7°C 19.5°F-6.9°C 73% 4.0 mph W6.4 kmh W -- 29.89 in1012.2 mb 0.00 in0.0 mm 0.00 in0.0 mm 0.00 in0.0 mm
01:31 AM 27.1°F-2.7°C 19.5°F-6.9°C 73% 4.0 mph WNW6.4 kmh WNW -- 29.89 in1012.2 mb 0.00 in0.0 mm 0.00 in0.0 mm 0.00 in0.0 mm
01:30 AM 27.1°F-2.7°C 19.5°F-6.9°C 73% 5.0 mph W8.0 kmh W -- 29.89 in1012.2 mb 0.00 in0.0 mm 0.00 in0.0 mm 0.00 in0.0 mm
01:29 AM 27.1°F-2.7°C 19.5°F-6.9°C 73% 5.0 mph W8.0 kmh W -- 29.88 in1011.9 mb 0.00 in0.0 mm 0.00 in0.0 mm 0.00 in0.0 mm
01:27 AM 27.1°F-2.7°C 19.5°F-6.9°C 73% 5.0 mph W8.0 kmh W -- 29.89 in1012.2 mb 0.00 in0.0 mm 0.00 in0.0 mm 0.00 in0.0 mm
01:24 AM 27.1°F-2.7°C 19.5°F-6.9°C 73% 4.0 mph W6.4 kmh W -- 29.89 in1012.2 mb 0.00 in0.0 mm 0.00 in0.0 mm 0.00 in0.0 mm
01:23 AM 27.3°F-2.6°C 19.7°F-6.8°C 73% 4.0 mph W6.4 kmh W -- 29.89 in1012.2 mb 0.00 in0.0 mm 0.00 in0.0 mm 0.00 in0.0 mm
01:22 AM 27.3°F-2.6°C 19.7°F-6.8°C 73% 3.0 mph W4.8 kmh W -- 29.90 in1012.5 mb 0.00 in0.0 mm 0.00 in0.0 mm 0.00 in0.0 mm
01:21 AM 27.3°F-2.6°C 19.7°F-6.8°C 73% 4.0 mph W6.4 kmh W -- 29.90 in1012.5 mb 0.00 in0.0 mm 0.00 in0.0 mm 0.00 in0.0 mm
01:20 AM 27.3°F-2.6°C 19.7°F-6.8°C 73% 4.0 mph W6.4 kmh W -- 29.89 in1012.2 mb 0.00 in0.0 mm 0.00 in0.0 mm 0.00 in0.0 mm
01:18 AM 27.3°F-2.6°C 19.7°F-6.8°C 73% 5.0 mph W8.0 kmh W -- 29.89 in1012.2 mb 0.00 in0.0 mm 0.00 in0.0 mm 0.00 in0.0 mm
01:17 AM 27.3°F-2.6°C 19.7°F-6.8°C 73% 6.0 mph W9.7 kmh W -- 29.90 in1012.5 mb 0.00 in0.0 mm 0.00 in0.0 mm 0.00 in0.0 mm
01:16 AM 27.3°F-2.6°C 19.7°F-6.8°C 73% 5.0 mph WNW8.0 kmh WNW -- 29.89 in1012.2 mb 0.00 in0.0 mm 0.00 in0.0 mm 0.00 in0.0 mm
01:15 AM 27.3°F-2.6°C 19.7°F-6.8°C 73% 5.0 mph W8.0 kmh W -- 29.90 in1012.5 mb 0.00 in0.0 mm 0.00 in0.0 mm 0.00 in0.0 mm
01:14 AM 27.3°F-2.6°C 19.0°F-7.2°C 71% 5.0 mph W8.0 kmh W -- 29.90 in1012.5 mb 0.00 in0.0 mm 0.00 in0.0 mm 0.00 in0.0 mm
01:13 AM 27.3°F-2.6°C 19.0°F-7.2°C 71% 4.0 mph W6.4 kmh W -- 29.90 in1012.5 mb 0.00 in0.0 mm 0.00 in0.0 mm 0.00 in0.0 mm
01:12 AM 27.3°F-2.6°C 19.0°F-7.2°C 71% 5.0 mph W8.0 kmh W -- 29.90 in1012.5 mb 0.00 in0.0 mm 0.00 in0.0 mm 0.00 in0.0 mm
01:11 AM 27.3°F-2.6°C 19.0°F-7.2°C 71% 4.0 mph W6.4 kmh W -- 29.90 in1012.5 mb 0.00 in0.0 mm 0.00 in0.0 mm 0.00 in0.0 mm
01:10 AM 27.5°F-2.5°C 19.2°F-7.1°C 71% 5.0 mph WSW8.0 kmh WSW -- 29.90 in1012.5 mb 0.00 in0.0 mm 0.00 in0.0 mm 0.00 in0.0 mm
01:09 AM 27.5°F-2.5°C 19.2°F-7.1°C 71% 5.0 mph W8.0 kmh W -- 29.90 in1012.5 mb 0.00 in0.0 mm 0.00 in0.0 mm 0.00 in0.0 mm
01:08 AM 27.5°F-2.5°C 19.2°F-7.1°C 71% 5.0 mph W8.0 kmh W -- 29.89 in1012.2 mb 0.00 in0.0 mm 0.00 in0.0 mm 0.00 in0.0 mm
01:07 AM 27.5°F-2.5°C 19.2°F-7.1°C 71% 6.0 mph W9.7 kmh W -- 29.89 in1012.2 mb 0.00 in0.0 mm 0.00 in0.0 mm 0.00 in0.0 mm
01:06 AM 27.6°F-2.4°C 19.4°F-7.0°C 71% 4.0 mph W6.4 kmh W -- 29.89 in1012.2 mb 0.00 in0.0 mm 0.00 in0.0 mm 0.00 in0.0 mm
01:05 AM 27.6°F-2.4°C 19.4°F-7.0°C 71% 4.0 mph WNW6.4 kmh WNW -- 29.90 in1012.5 mb 0.00 in0.0 mm 0.00 in0.0 mm 0.00 in0.0 mm
01:01 AM 27.6°F-2.4°C 19.4°F-7.0°C 71% 3.0 mph W4.8 kmh W -- 29.90 in1012.5 mb 0.00 in0.0 mm 0.00 in0.0 mm 0.00 in0.0 mm
01:00 AM 27.6°F-2.4°C 19.4°F-7.0°C 71% 4.0 mph WNW6.4 kmh WNW -- 29.90 in1012.5 mb 0.00 in0.0 mm 0.00 in0.0 mm 0.00 in0.0 mm
12:58 AM 27.6°F-2.4°C 19.4°F-7.0°C 71% 4.0 mph W6.4 kmh W -- 29.90 in1012.5 mb 0.00 in0.0 mm 0.00 in0.0 mm 0.00 in0.0 mm
12:57 AM 27.6°F-2.4°C 19.4°F-7.0°C 71% 3.0 mph WNW4.8 kmh WNW -- 29.90 in1012.5 mb 0.00 in0.0 mm 0.00 in0.0 mm 0.00 in0.0 mm
12:56 AM 27.6°F-2.4°C 19.4°F-7.0°C 71% 3.0 mph W4.8 kmh W -- 29.90 in1012.5 mb 0.00 in0.0 mm 0.00 in0.0 mm 0.00 in0.0 mm
12:55 AM 27.6°F-2.4°C 19.4°F-7.0°C 71% 4.0 mph W6.4 kmh W -- 29.90 in1012.5 mb 0.00 in0.0 mm 0.00 in0.0 mm 0.00 in0.0 mm
12:54 AM 27.6°F-2.4°C 19.1°F-7.2°C 70% 4.0 mph NW6.4 kmh NW -- 29.90 in1012.5 mb 0.00 in0.0 mm 0.00 in0.0 mm 0.00 in0.0 mm
12:53 AM 27.8°F-2.3°C 19.2°F-7.1°C 70% 3.0 mph WNW4.8 kmh WNW -- 29.90 in1012.5 mb 0.00 in0.0 mm 0.00 in0.0 mm 0.00 in0.0 mm
12:52 AM 27.8°F-2.3°C 19.2°F-7.1°C 70% 4.0 mph WNW6.4 kmh WNW -- 29.90 in1012.5 mb 0.00 in0.0 mm 0.00 in0.0 mm 0.00 in0.0 mm
12:51 AM 27.8°F-2.3°C 19.2°F-7.1°C 70% 4.0 mph W6.4 kmh W -- 29.90 in1012.5 mb 0.00 in0.0 mm 0.00 in0.0 mm 0.00 in0.0 mm
12:50 AM 27.8°F-2.3°C 19.2°F-7.1°C 70% 3.0 mph NW4.8 kmh NW -- 29.90 in1012.5 mb 0.00 in0.0 mm 0.00 in0.0 mm 0.00 in0.0 mm
12:49 AM 27.8°F-2.3°C 19.2°F-7.1°C 70% 3.0 mph W4.8 kmh W -- 29.90 in1012.5 mb 0.00 in0.0 mm 0.00 in0.0 mm 0.00 in0.0 mm
12:48 AM 27.8°F-2.3°C 19.2°F-7.1°C 70% 4.0 mph WNW6.4 kmh WNW -- 29.90 in1012.5 mb 0.00 in0.0 mm 0.00 in0.0 mm 0.00 in0.0 mm
12:47 AM 27.8°F-2.3°C 19.2°F-7.1°C 70% 4.0 mph W6.4 kmh W -- 29.90 in1012.5 mb 0.00 in0.0 mm 0.00 in0.0 mm 0.00 in0.0 mm
12:46 AM 27.8°F-2.3°C 19.2°F-7.1°C 70% 3.0 mph W4.8 kmh W -- 29.90 in1012.5 mb 0.00 in0.0 mm 0.00 in0.0 mm 0.00 in0.0 mm
12:45 AM 27.8°F-2.3°C 19.2°F-7.1°C 70% 4.0 mph W6.4 kmh W -- 29.90 in1012.5 mb 0.00 in0.0 mm 0.00 in0.0 mm 0.00 in0.0 mm
12:44 AM 27.8°F-2.3°C 19.2°F-7.1°C 70% 5.0 mph WNW8.0 kmh WNW -- 29.90 in1012.5 mb 0.00 in0.0 mm 0.00 in0.0 mm 0.00 in0.0 mm
12:43 AM 27.8°F-2.3°C 19.2°F-7.1°C 70% 3.0 mph W4.8 kmh W -- 29.90 in1012.5 mb 0.00 in0.0 mm 0.00 in0.0 mm 0.00 in0.0 mm
12:42 AM 27.8°F-2.3°C 19.2°F-7.1°C 70% 6.0 mph W9.7 kmh W -- 29.91 in1012.9 mb 0.00 in0.0 mm 0.00 in0.0 mm 0.00 in0.0 mm
12:41 AM 27.8°F-2.3°C 19.2°F-7.1°C 70% 4.0 mph W6.4 kmh W -- 29.91 in1012.9 mb 0.00 in0.0 mm 0.00 in0.0 mm 0.00 in0.0 mm
12:40 AM 27.8°F-2.3°C 19.2°F-7.1°C 70% 3.0 mph W4.8 kmh W -- 29.91 in1012.9 mb 0.00 in0.0 mm 0.00 in0.0 mm 0.00 in0.0 mm
12:39 AM 27.8°F-2.3°C 19.2°F-7.1°C 70% 4.0 mph WNW6.4 kmh WNW -- 29.91 in1012.9 mb 0.00 in0.0 mm 0.00 in0.0 mm 0.00 in0.0 mm
12:38 AM 27.8°F-2.3°C 19.2°F-7.1°C 70% 4.0 mph W6.4 kmh W -- 29.91 in1012.9 mb 0.00 in0.0 mm 0.00 in0.0 mm 0.00 in0.0 mm
12:37 AM 27.9°F-2.3°C 19.2°F-7.1°C 70% 4.0 mph WNW6.4 kmh WNW -- 29.91 in1012.9 mb 0.00 in0.0 mm 0.00 in0.0 mm 0.00 in0.0 mm
12:36 AM 27.9°F-2.3°C 19.2°F-7.1°C 70% 5.0 mph W8.0 kmh W -- 29.90 in1012.5 mb 0.00 in0.0 mm 0.00 in0.0 mm 0.00 in0.0 mm
12:35 AM 27.9°F-2.3°C 19.2°F-7.1°C 70% 4.0 mph W6.4 kmh W -- 29.91 in1012.9 mb 0.00 in0.0 mm 0.00 in0.0 mm 0.00 in0.0 mm
12:34 AM 27.9°F-2.3°C 19.2°F-7.1°C 70% 5.0 mph WNW8.0 kmh WNW -- 29.90 in1012.5 mb 0.00 in0.0 mm 0.00 in0.0 mm 0.00 in0.0 mm
12:33 AM 27.9°F-2.3°C 19.2°F-7.1°C 70% 6.0 mph W9.7 kmh W -- 29.91 in1012.9 mb 0.00 in0.0 mm 0.00 in0.0 mm 0.00 in0.0 mm
12:32 AM 27.9°F-2.3°C 19.2°F-7.1°C 70% 6.0 mph W9.7 kmh W -- 29.90 in1012.5 mb 0.00 in0.0 mm 0.00 in0.0 mm 0.00 in0.0 mm
12:31 AM 27.9°F-2.3°C 19.2°F-7.1°C 70% 6.0 mph WSW9.7 kmh WSW -- 29.90 in1012.5 mb 0.00 in0.0 mm 0.00 in0.0 mm 0.00 in0.0 mm
12:30 AM 27.9°F-2.3°C 19.2°F-7.1°C 70% 6.0 mph W9.7 kmh W -- 29.90 in1012.5 mb 0.00 in0.0 mm 0.00 in0.0 mm 0.00 in0.0 mm
12:29 AM 27.8°F-2.3°C 19.2°F-7.1°C 70% 3.0 mph W4.8 kmh W -- 29.90 in1012.5 mb 0.00 in0.0 mm 0.00 in0.0 mm 0.00 in0.0 mm
12:28 AM 27.8°F-2.3°C 19.2°F-7.1°C 70% 4.0 mph W6.4 kmh W -- 29.90 in1012.5 mb 0.00 in0.0 mm 0.00 in0.0 mm 0.00 in0.0 mm
12:27 AM 27.8°F-2.3°C 19.2°F-7.1°C 70% 4.0 mph W6.4 kmh W -- 29.91 in1012.9 mb 0.00 in0.0 mm 0.00 in0.0 mm 0.00 in0.0 mm
12:26 AM 27.5°F-2.5°C 18.9°F-7.3°C 70% 4.0 mph W6.4 kmh W -- 29.91 in1012.9 mb 0.00 in0.0 mm 0.00 in0.0 mm 0.00 in0.0 mm
12:24 AM 27.3°F-2.6°C 18.7°F-7.4°C 70% 4.0 mph W6.4 kmh W -- 29.91 in1012.9 mb 0.00 in0.0 mm 0.00 in0.0 mm 0.00 in0.0 mm
12:23 AM 27.3°F-2.6°C 18.7°F-7.4°C 70% 3.0 mph W4.8 kmh W -- 29.91 in1012.9 mb 0.00 in0.0 mm 0.00 in0.0 mm 0.00 in0.0 mm
12:22 AM 27.1°F-2.7°C 18.5°F-7.5°C 70% 4.0 mph W6.4 kmh W -- 29.91 in1012.9 mb 0.00 in0.0 mm 0.00 in0.0 mm 0.00 in0.0 mm
12:21 AM 27.1°F-2.7°C 18.5°F-7.5°C 70% 3.0 mph WNW4.8 kmh WNW -- 29.91 in1012.9 mb 0.00 in0.0 mm 0.00 in0.0 mm 0.00 in0.0 mm
12:20 AM 27.1°F-2.7°C 18.5°F-7.5°C 70% 4.0 mph NW6.4 kmh NW -- 29.91 in1012.9 mb 0.00 in0.0 mm 0.00 in0.0 mm 0.00 in0.0 mm
12:19 AM 27.1°F-2.7°C 18.5°F-7.5°C 70% 3.0 mph W4.8 kmh W -- 29.91 in1012.9 mb 0.00 in0.0 mm 0.00 in0.0 mm 0.00 in0.0 mm
12:18 AM 27.0°F-2.8°C 18.4°F-7.6°C 70% 5.0 mph WNW8.0 kmh WNW -- 29.91 in1012.9 mb 0.00 in0.0 mm 0.00 in0.0 mm 0.00 in0.0 mm
12:17 AM 26.7°F-2.9°C 18.5°F-7.5°C 71% 5.0 mph W8.0 kmh W -- 29.91 in1012.9 mb 0.00 in0.0 mm 0.00 in0.0 mm 0.00 in0.0 mm
12:16 AM 26.7°F-2.9°C 18.5°F-7.5°C 71% 4.0 mph W6.4 kmh W -- 29.91 in1012.9 mb 0.00 in0.0 mm 0.00 in0.0 mm 0.00 in0.0 mm
12:15 AM 26.6°F-3.0°C 18.4°F-7.6°C 71% 4.0 mph W6.4 kmh W -- 29.92 in1013.2 mb 0.00 in0.0 mm 0.00 in0.0 mm 0.00 in0.0 mm
12:14 AM 26.3°F-3.2°C 18.7°F-7.4°C 73% 4.0 mph WSW6.4 kmh WSW -- 29.91 in1012.9 mb 0.00 in0.0 mm 0.00 in0.0 mm 0.00 in0.0 mm
12:13 AM 26.2°F-3.2°C 18.7°F-7.4°C 73% 4.0 mph W6.4 kmh W -- 29.91 in1012.9 mb 0.00 in0.0 mm 0.00 in0.0 mm 0.00 in0.0 mm
12:12 AM 26.2°F-3.2°C 18.7°F-7.4°C 73% 2.0 mph WNW3.2 kmh WNW -- 29.91 in1012.9 mb 0.00 in0.0 mm 0.00 in0.0 mm 0.00 in0.0 mm
12:11 AM 26.1°F-3.3°C 18.5°F-7.5°C 73% 3.0 mph W4.8 kmh W -- 29.92 in1013.2 mb 0.00 in0.0 mm 0.00 in0.0 mm 0.00 in0.0 mm
12:10 AM 25.9°F-3.4°C 18.3°F-7.6°C 73% 3.0 mph W4.8 kmh W -- 29.92 in1013.2 mb 0.00 in0.0 mm 0.00 in0.0 mm 0.00 in0.0 mm
12:09 AM 25.7°F-3.5°C 18.5°F-7.5°C 74% 3.0 mph W4.8 kmh W -- 29.91 in1012.9 mb 0.00 in0.0 mm 0.00 in0.0 mm 0.00 in0.0 mm
12:08 AM 25.7°F-3.5°C 18.5°F-7.5°C 74% 3.0 mph SW4.8 kmh SW -- 29.91 in1012.9 mb 0.00 in0.0 mm 0.00 in0.0 mm 0.00 in0.0 mm
12:07 AM 25.4°F-3.7°C 18.1°F-7.7°C 74% 3.0 mph W4.8 kmh W -- 29.91 in1012.9 mb 0.00 in0.0 mm 0.00 in0.0 mm 0.00 in0.0 mm
12:06 AM 25.2°F-3.8°C 18.3°F-7.6°C 75% 3.0 mph W4.8 kmh W -- 29.92 in1013.2 mb 0.00 in0.0 mm 0.00 in0.0 mm 0.00 in0.0 mm
12:05 AM 25.2°F-3.8°C 18.3°F-7.6°C 75% 2.0 mph W3.2 kmh W -- 29.92 in1013.2 mb 0.00 in0.0 mm 0.00 in0.0 mm 0.00 in0.0 mm
12:04 AM 25.1°F-3.8°C 18.3°F-7.6°C 75% 3.0 mph WSW4.8 kmh WSW -- 29.92 in1013.2 mb 0.00 in0.0 mm 0.00 in0.0 mm 0.00 in0.0 mm
12:03 AM 25.1°F-3.8°C 18.3°F-7.6°C 75% 3.0 mph W4.8 kmh W -- 29.92 in1013.2 mb 0.00 in0.0 mm 0.00 in0.0 mm 0.00 in0.0 mm
12:02 AM 25.1°F-3.8°C 18.3°F-7.6°C 75% 2.0 mph W3.2 kmh W -- 29.91 in1012.9 mb 0.00 in0.0 mm 0.00 in0.0 mm 0.00 in0.0 mm
12:01 AM 25.1°F-3.8°C 18.3°F-7.6°C 75% 3.0 mph W4.8 kmh W -- 29.92 in1013.2 mb 0.00 in0.0 mm 0.00 in0.0 mm 0.00 in0.0 mm
12:00 AM 25.1°F-3.8°C 18.3°F-7.6°C 75% 3.0 mph W4.8 kmh W -- 29.91 in1012.9 mb 0.00 in0.0 mm 0.00 in0.0 mm 0.00 in0.0 mm